Observation data for Sierra Blanca on 03/25/2019      Previous  Date  Next       Current Mesonet Observations  Soil Data  Daily Summary Page  Observations in Plain Language
KSB1 250500Z 30005KT 16/M10 A3022 RMK A01 T01601095  RH  016%=      5-min Rain = 0
KSB1 250501Z 32005KT 16/M10 A3022 RMK A01 T01621095  RH  016%=      5-min Rain = 0
KSB1 250502Z 32006KT 16/M10 A3022 RMK A01 T01631096  RH  016%=      5-min Rain = 0
KSB1 250503Z 32006KT 16/M10 A3022 RMK A01 T01641097  RH  016%=      5-min Rain = 0
KSB1 250504Z 33006KT 17/M10 A3022 RMK A01 T01651098  RH  016%=      5-min Rain = 0
KSB1 250505Z 33005KT 17/M10 A3022 RMK A01 T01661098  RH  015%=      5-min Rain = 0
KSB1 250506Z 33006KT 17/M10 A3022 RMK A01 T01671098  RH  015%=      5-min Rain = 0
KSB1 250507Z 02005KT 17/M09 A3022 RMK A01 T01661094  RH  016%=      5-min Rain = 0
KSB1 250508Z 05006KT 16/M09 A3022 RMK A01 T01551086  RH  018%=      5-min Rain = 0
KSB1 250509Z 06006KT 14/M08 A3022 RMK A01 T01421082  RH  020%=      5-min Rain = 0
KSB1 250510Z 06005KT 13/M08 A3022 RMK A01 T01321082  RH  022%=      5-min Rain = 0
KSB1 250511Z 05004KT 13/M08 A3022 RMK A01 T01281080  RH  023%=      5-min Rain = 0
KSB1 250512Z 05004KT 13/M08 A3022 RMK A01 T01261081  RH  023%=      5-min Rain = 0
KSB1 250513Z 07004KT 13/M08 A3022 RMK A01 T01271083  RH  022%=      5-min Rain = 0
KSB1 250514Z 07003KT 13/M08 A3022 RMK A01 T01321084  RH  021%=      5-min Rain = 0
KSB1 250515Z 05002KT 14/M08 A3022 RMK A01 T01361082  RH  021%=      5-min Rain = 0
KSB1 250516Z 04003KT 14/M08 A3022 RMK A01 T01351081  RH  021%=      5-min Rain = 0
KSB1 250517Z 08003KT 14/M08 A3022 RMK A01 T01351084  RH  021%=      5-min Rain = 0
KSB1 250518Z 09003KT 14/M09 A3022 RMK A01 T01371085  RH  021%=      5-min Rain = 0
KSB1 250519Z 09003KT 14/M09 A3022 RMK A01 T01391085  RH  020%=      5-min Rain = 0
KSB1 250520Z 09002KT 14/M09 A3022 RMK A01 T01401086  RH  020%=      5-min Rain = 0
KSB1 250521Z 09001KT 14/M09 A3022 RMK A01 T01411086  RH  020%=      5-min Rain = 0
KSB1 250522Z 21001KT 14/M08 A3022 RMK A01 T01411083  RH  020%=      5-min Rain = 0
KSB1 250523Z 21002KT 14/M08 A3022 RMK A01 T01361083  RH  021%=      5-min Rain = 0
KSB1 250524Z 21002KT 13/M08 A3022 RMK A01 T01341084  RH  021%=      5-min Rain = 0
KSB1 250525Z 22002KT 13/M08 A3022 RMK A01 T01331082  RH  022%=      5-min Rain = 0
KSB1 250526Z 22002KT 13/M08 A3022 RMK A01 T01311082  RH  022%=      5-min Rain = 0
KSB1 250527Z 20002KT 13/M08 A3022 RMK A01 T01301084  RH  022%=      5-min Rain = 0
KSB1 250528Z 20002KT 13/M08 A3022 RMK A01 T01311084  RH  022%=      5-min Rain = 0
KSB1 250529Z 19002KT 13/M08 A3022 RMK A01 T01341084  RH  021%=      5-min Rain = 0
KSB1 250530Z 19002KT 14/M09 A3022 RMK A01 T01361085  RH  021%=      5-min Rain = 0
KSB1 250531Z 21002KT 14/M09 A3022 RMK A01 T01401085  RH  020%=      5-min Rain = 0
KSB1 250532Z 21003KT 14/M09 A3022 RMK A01 T01431085  RH  020%=      5-min Rain = 0
KSB1 250533Z 21003KT 14/M09 A3022 RMK A01 T01441085  RH  020%=      5-min Rain = 0
KSB1 250534Z 20002KT 15/M09 A3022 RMK A01 T01451085  RH  019%=      5-min Rain = 0
KSB1 250535Z 19002KT 15/M09 A3022 RMK A01 T01461085  RH  019%=      5-min Rain = 0
KSB1 250536Z 20002KT 15/M09 A3022 RMK A01 T01471086  RH  019%=      5-min Rain = 0
KSB1 250537Z 19002KT 15/M08 A3022 RMK A01 T01481084  RH  019%=      5-min Rain = 0
KSB1 250538Z 23001KT 15/M09 A3022 RMK A01 T01481087  RH  019%=      5-min Rain = 0
KSB1 250539Z 21001KT 15/M09 A3023 RMK A01 T01501088  RH  019%=      5-min Rain = 0
KSB1 250540Z 18001KT 15/M09 A3023 RMK A01 T01521088  RH  018%=      5-min Rain = 0
KSB1 250541Z 15001KT 15/M09 A3023 RMK A01 T01541087  RH  018%=      5-min Rain = 0
KSB1 250542Z 11001KT 15/M09 A3023 RMK A01 T01541087  RH  018%=      5-min Rain = 0
KSB1 250543Z 04005KT 15/M09 A3023 RMK A01 T01521085  RH  019%=      5-min Rain = 0
KSB1 250544Z 06003KT 14/M08 A3023 RMK A01 T01401082  RH  021%=      5-min Rain = 0
KSB1 250545Z 12002KT 13/M08 A3023 RMK A01 T01301082  RH  022%=      5-min Rain = 0
KSB1 250546Z 13003KT 13/M09 A3023 RMK A01 T01261085  RH  022%=      5-min Rain = 0
KSB1 250547Z 13003KT 13/M09 A3022 RMK A01 T01251087  RH  022%=      5-min Rain = 0
KSB1 250548Z 13003KT 13/M09 A3022 RMK A01 T01261088  RH  022%=      5-min Rain = 0
KSB1 250549Z 14002KT 13/M09 A3022 RMK A01 T01301086  RH  021%=      5-min Rain = 0
KSB1 250550Z 14002KT 14/M08 A3022 RMK A01 T01351084  RH  021%=      5-min Rain = 0
KSB1 250551Z 14002KT 14/M08 A3022 RMK A01 T01401084  RH  020%=      5-min Rain = 0
KSB1 250552Z 15002KT 14/M09 A3022 RMK A01 T01431085  RH  020%=      5-min Rain = 0
KSB1 250553Z 17002KT 15/M09 A3022 RMK A01 T01451085  RH  020%=      5-min Rain = 0
KSB1 250554Z 17002KT 15/M09 A3022 RMK A01 T01451085  RH  019%=      5-min Rain = 0
KSB1 250555Z 17003KT 15/M09 A3022 RMK A01 T01461087  RH  019%=      5-min Rain = 0
KSB1 250556Z 16002KT 15/M09 A3023 RMK A01 T01481087  RH  019%=      5-min Rain = 0
KSB1 250557Z 16001KT 15/M09 A3023 RMK A01 T01481088  RH  019%=      5-min Rain = 0
KSB1 250558Z 16001KT 15/M09 A3023 RMK A01 T01481089  RH  019%=      5-min Rain = 0
KSB1 250559Z 16001KT 15/M09 A3023 RMK A01 T01491089  RH  018%=      5-min Rain = 0
KSB1 250600Z 17001KT 15/M09 A3023 RMK A01 T01491088  RH  018%=      5-min Rain = 0
KSB1 250601Z 02000KT 15/M09 A3023 RMK A01 T01491087  RH  019%=      5-min Rain = 0
KSB1 250602Z 03001KT 15/M09 A3023 RMK A01 T01481088  RH  019%=      5-min Rain = 0
KSB1 250603Z 02000KT 15/M09 A3023 RMK A01 T01481087  RH  019%=      5-min Rain = 0
KSB1 250604Z 00000KT 15/M09 A3023 RMK A01 T01471090  RH  019%=      5-min Rain = 0
KSB1 250605Z 00000KT 15/M09 A3023 RMK A01 T01471090  RH  019%=      5-min Rain = 0
KSB1 250606Z 00000KT 15/M09 A3023 RMK A01 T01481090  RH  018%=      5-min Rain = 0
KSB1 250607Z 02000KT 15/M09 A3023 RMK A01 T01481090  RH  018%=      5-min Rain = 0
KSB1 250608Z 18000KT 15/M09 A3023 RMK A01 T01491091  RH  018%=      5-min Rain = 0
KSB1 250609Z 20001KT 15/M09 A3023 RMK A01 T01501091  RH  018%=      5-min Rain = 0
KSB1 250610Z 20001KT 15/M09 A3023 RMK A01 T01511092  RH  018%=      5-min Rain = 0
KSB1 250611Z 20000KT 15/M09 A3023 RMK A01 T01521094  RH  017%=      5-min Rain = 0
KSB1 250612Z 00000KT 15/M10 A3023 RMK A01 T01531095  RH  017%=      5-min Rain = 0
KSB1 250613Z 20000KT 15/M10 A3023 RMK A01 T01541096  RH  017%=      5-min Rain = 0
KSB1 250614Z 20001KT 16/M10 A3023 RMK A01 T01551096  RH  017%=      5-min Rain = 0
KSB1 250615Z 20001KT 16/M10 A3023 RMK A01 T01561096  RH  017%=      5-min Rain = 0
KSB1 250616Z 20001KT 16/M10 A3023 RMK A01 T01561096  RH  017%=      5-min Rain = 0
KSB1 250617Z 19001KT 16/M10 A3022 RMK A01 T01561096  RH  017%=      5-min Rain = 0
KSB1 250618Z 18002KT 16/M10 A3022 RMK A01 T01571096  RH  017%=      5-min Rain = 0
KSB1 250619Z 18002KT 16/M10 A3022 RMK A01 T01571096  RH  017%=      5-min Rain = 0
KSB1 250620Z 18002KT 16/M10 A3022 RMK A01 T01571096  RH  017%=      5-min Rain = 0
KSB1 250621Z 18001KT 16/M10 A3022 RMK A01 T01571095  RH  017%=      5-min Rain = 0
KSB1 250622Z 16001KT 16/M10 A3022 RMK A01 T01571096  RH  017%=      5-min Rain = 0
KSB1 250623Z 13001KT 16/M10 A3023 RMK A01 T01571097  RH  017%=      5-min Rain = 0
KSB1 250624Z 08002KT 16/M10 A3023 RMK A01 T01571097  RH  016%=      5-min Rain = 0
KSB1 250625Z 05003KT 15/M09 A3023 RMK A01 T01521088  RH  018%=      5-min Rain = 0
KSB1 250626Z 08002KT 14/M09 A3023 RMK A01 T01431090  RH  019%=      5-min Rain = 0
KSB1 250627Z 10002KT 14/M09 A3023 RMK A01 T01411090  RH  019%=      5-min Rain = 0
KSB1 250628Z 10001KT 14/M09 A3023 RMK A01 T01391092  RH  019%=      5-min Rain = 0
KSB1 250629Z 09002KT 14/M09 A3023 RMK A01 T01401094  RH  019%=      5-min Rain = 0
KSB1 250630Z 07002KT 14/M09 A3023 RMK A01 T01421094  RH  019%=      5-min Rain = 0
KSB1 250631Z 05002KT 14/M09 A3023 RMK A01 T01441092  RH  019%=      5-min Rain = 0
KSB1 250632Z 06002KT 14/M09 A3023 RMK A01 T01431089  RH  019%=      5-min Rain = 0
KSB1 250633Z 07002KT 14/M09 A3023 RMK A01 T01381087  RH  020%=      5-min Rain = 0
KSB1 250634Z 05002KT 13/M09 A3023 RMK A01 T01331089  RH  021%=      5-min Rain = 0
KSB1 250635Z 05002KT 13/M09 A3023 RMK A01 T01301090  RH  021%=      5-min Rain = 0
KSB1 250636Z 04003KT 13/M09 A3023 RMK A01 T01291089  RH  021%=      5-min Rain = 0
KSB1 250637Z 04002KT 13/M09 A3023 RMK A01 T01281089  RH  021%=      5-min Rain = 0
KSB1 250638Z 05002KT 13/M09 A3023 RMK A01 T01281089  RH  021%=      5-min Rain = 0
KSB1 250639Z 05002KT 13/M09 A3023 RMK A01 T01301090  RH  021%=      5-min Rain = 0
KSB1 250640Z 03002KT 13/M09 A3023 RMK A01 T01331091  RH  020%=      5-min Rain = 0
KSB1 250641Z 02002KT 14/M09 A3023 RMK A01 T01371093  RH  019%=      5-min Rain = 0
KSB1 250642Z 04001KT 14/M09 A3023 RMK A01 T01411094  RH  019%=      5-min Rain = 0
KSB1 250643Z 05001KT 15/M10 A3023 RMK A01 T01451095  RH  018%=      5-min Rain = 0
KSB1 250644Z 01001KT 15/M10 A3023 RMK A01 T01481096  RH  018%=      5-min Rain = 0
KSB1 250645Z 01001KT 15/M10 A3023 RMK A01 T01501096  RH  017%=      5-min Rain = 0
KSB1 250646Z 34001KT 15/M10 A3023 RMK A01 T01511096  RH  017%=      5-min Rain = 0
KSB1 250647Z 35002KT 15/M10 A3023 RMK A01 T01521096  RH  017%=      5-min Rain = 0
KSB1 250648Z 35002KT 15/M10 A3023 RMK A01 T01531097  RH  017%=      5-min Rain = 0
KSB1 250649Z 00002KT 16/M10 A3023 RMK A01 T01551098  RH  017%=      5-min Rain = 0
KSB1 250650Z 00001KT 16/M10 A3023 RMK A01 T01561098  RH  016%=      5-min Rain = 0
KSB1 250651Z 02001KT 16/M10 A3023 RMK A01 T01561099  RH  016%=      5-min Rain = 0
KSB1 250652Z 01001KT 15/M10 A3023 RMK A01 T01541099  RH  016%=      5-min Rain = 0
KSB1 250653Z 01001KT 15/M10 A3023 RMK A01 T01521101  RH  016%=      5-min Rain = 0
KSB1 250654Z 00002KT 15/M10 A3023 RMK A01 T01511101  RH  017%=      5-min Rain = 0
KSB1 250655Z 00002KT 15/M10 A3023 RMK A01 T01501102  RH  017%=      5-min Rain = 0
KSB1 250656Z 01002KT 15/M10 A3023 RMK A01 T01491103  RH  017%=      5-min Rain = 0
KSB1 250657Z 00002KT 15/M10 A3023 RMK A01 T01491103  RH  016%=      5-min Rain = 0
KSB1 250658Z 36003KT 15/M10 A3023 RMK A01 T01481102  RH  017%=      5-min Rain = 0
KSB1 250659Z 35003KT 15/M10 A3023 RMK A01 T01471102  RH  017%=      5-min Rain = 0
KSB1 250700Z 35003KT 15/M10 A3023 RMK A01 T01461102  RH  017%=      5-min Rain = 0
KSB1 250701Z 35002KT 15/M10 A3023 RMK A01 T01451103  RH  017%=      5-min Rain = 0
KSB1 250702Z 34003KT 15/M10 A3023 RMK A01 T01451104  RH  017%=      5-min Rain = 0
KSB1 250703Z 34003KT 15/M10 A3023 RMK A01 T01461104  RH  017%=      5-min Rain = 0
KSB1 250704Z 33002KT 15/M11 A3023 RMK A01 T01471105  RH  016%=      5-min Rain = 0
KSB1 250705Z 32002KT 15/M11 A3023 RMK A01 T01481105  RH  016%=      5-min Rain = 0
KSB1 250706Z 32002KT 15/M11 A3023 RMK A01 T01491105  RH  016%=      5-min Rain = 0
KSB1 250707Z 32001KT 15/M11 A3023 RMK A01 T01501105  RH  016%=      5-min Rain = 0
KSB1 250708Z 32001KT 15/M11 A3023 RMK A01 T01521106  RH  016%=      5-min Rain = 0
KSB1 250709Z 32001KT 16/M11 A3023 RMK A01 T01551106  RH  016%=      5-min Rain = 0
KSB1 250710Z 32001KT 16/M11 A3023 RMK A01 T01571106  RH  015%=      5-min Rain = 0
KSB1 250711Z 32001KT 16/M11 A3023 RMK A01 T01591105  RH  015%=      5-min Rain = 0
KSB1 250712Z 31001KT 16/M11 A3023 RMK A01 T01601105  RH  015%=      5-min Rain = 0
KSB1 250713Z 31001KT 16/M11 A3023 RMK A01 T01611106  RH  015%=      5-min Rain = 0
KSB1 250714Z 29001KT 16/M11 A3023 RMK A01 T01611108  RH  015%=      5-min Rain = 0
KSB1 250715Z 24001KT 16/M11 A3023 RMK A01 T01611109  RH  015%=      5-min Rain = 0
KSB1 250716Z 23001KT 16/M11 A3023 RMK A01 T01621109  RH  015%=      5-min Rain = 0
KSB1 250717Z 26001KT 16/M11 A3023 RMK A01 T01621109  RH  015%=      5-min Rain = 0
KSB1 250718Z 26001KT 16/M11 A3023 RMK A01 T01621109  RH  014%=      5-min Rain = 0
KSB1 250719Z 26001KT 16/M11 A3023 RMK A01 T01631111  RH  014%=      5-min Rain = 0
KSB1 250720Z 22001KT 16/M11 A3023 RMK A01 T01641110  RH  014%=      5-min Rain = 0
KSB1 250721Z 15006KT 16/M10 A3023 RMK A01 T01581098  RH  016%=      5-min Rain = 0
KSB1 250722Z 14006KT 14/M09 A3023 RMK A01 T01351091  RH  020%=      5-min Rain = 0
KSB1 250723Z 15006KT 12/M09 A3023 RMK A01 T01161087  RH  023%=      5-min Rain = 0
KSB1 250724Z 13006KT 11/M08 A3023 RMK A01 T01061084  RH  025%=      5-min Rain = 0
KSB1 250725Z 14005KT 10/M08 A3023 RMK A01 T01011080  RH  027%=      5-min Rain = 0
KSB1 250726Z 15005KT 10/M08 A3023 RMK A01 T00961078  RH  028%=      5-min Rain = 0
KSB1 250727Z 15005KT 09/M08 A3023 RMK A01 T00921077  RH  030%=      5-min Rain = 0
KSB1 250728Z 15005KT 09/M08 A3023 RMK A01 T00891075  RH  031%=      5-min Rain = 0
KSB1 250729Z 16005KT 09/M08 A3023 RMK A01 T00861075  RH  031%=      5-min Rain = 0
KSB1 250730Z 16004KT 09/M08 A3023 RMK A01 T00851075  RH  031%=      5-min Rain = 0
KSB1 250731Z 17005KT 08/M08 A3023 RMK A01 T00841076  RH  031%=      5-min Rain = 0
KSB1 250732Z 17005KT 09/M08 A3023 RMK A01 T00851078  RH  031%=      5-min Rain = 0
KSB1 250733Z 17004KT 09/M08 A3023 RMK A01 T00881079  RH  030%=      5-min Rain = 0
KSB1 250734Z 18004KT 09/M08 A3023 RMK A01 T00891078  RH  030%=      5-min Rain = 0
KSB1 250735Z 18003KT 09/M08 A3023 RMK A01 T00931081  RH  028%=      5-min Rain = 0
KSB1 250736Z 18003KT 10/M08 A3023 RMK A01 T00971081  RH  028%=      5-min Rain = 0
KSB1 250737Z 19003KT 10/M08 A3023 RMK A01 T01001082  RH  027%=      5-min Rain = 0
KSB1 250738Z 19003KT 10/M08 A3023 RMK A01 T01021083  RH  026%=      5-min Rain = 0
KSB1 250739Z 19003KT 10/M08 A3023 RMK A01 T01041083  RH  026%=      5-min Rain = 0
KSB1 250740Z 20003KT 10/M08 A3023 RMK A01 T01041083  RH  026%=      5-min Rain = 0
KSB1 250741Z 21003KT 10/M08 A3022 RMK A01 T01041083  RH  026%=      5-min Rain = 0
KSB1 250742Z 21003KT 11/M08 A3022 RMK A01 T01061083  RH  026%=      5-min Rain = 0
KSB1 250743Z 21002KT 11/M08 A3022 RMK A01 T01071084  RH  025%=      5-min Rain = 0
KSB1 250744Z 14002KT 11/M08 A3022 RMK A01 T01081084  RH  025%=      5-min Rain = 0
KSB1 250745Z 07005KT 10/M08 A3023 RMK A01 T01041081  RH  026%=      5-min Rain = 0
KSB1 250746Z 12003KT 10/M09 A3022 RMK A01 T00991087  RH  026%=      5-min Rain = 0
KSB1 250747Z 13002KT 10/M09 A3022 RMK A01 T01031087  RH  025%=      5-min Rain = 0
KSB1 250748Z 16001KT 11/M08 A3022 RMK A01 T01051083  RH  026%=      5-min Rain = 0
KSB1 250749Z 16001KT 10/M08 A3022 RMK A01 T01031084  RH  026%=      5-min Rain = 0
KSB1 250750Z 07003KT 10/M09 A3023 RMK A01 T01031085  RH  026%=      5-min Rain = 0
KSB1 250751Z 05004KT 10/M08 A3023 RMK A01 T00991082  RH  027%=      5-min Rain = 0
KSB1 250752Z 04005KT 09/M08 A3023 RMK A01 T00921084  RH  028%=      5-min Rain = 0
KSB1 250753Z 05002KT 09/M09 A3023 RMK A01 T00871086  RH  029%=      5-min Rain = 0
KSB1 250754Z 03001KT 08/M09 A3023 RMK A01 T00841087  RH  029%=      5-min Rain = 0
KSB1 250755Z 04001KT 08/M09 A3023 RMK A01 T00831087  RH  029%=      5-min Rain = 0
KSB1 250756Z 03001KT 08/M09 A3022 RMK A01 T00831087  RH  029%=      5-min Rain = 0
KSB1 250757Z 04001KT 09/M09 A3022 RMK A01 T00851087  RH  029%=      5-min Rain = 0
KSB1 250758Z 04002KT 09/M09 A3022 RMK A01 T00861088  RH  028%=      5-min Rain = 0
KSB1 250759Z 03002KT 09/M09 A3022 RMK A01 T00891088  RH  028%=      5-min Rain = 0
KSB1 250800Z 01003KT 09/M09 A3022 RMK A01 T00901089  RH  027%=      5-min Rain = 0
KSB1 250801Z 02003KT 09/M09 A3022 RMK A01 T00921088  RH  027%=      5-min Rain = 0
KSB1 250802Z 03004KT 09/M09 A3022 RMK A01 T00931088  RH  027%=      5-min Rain = 0
KSB1 250803Z 03004KT 10/M09 A3022 RMK A01 T00951090  RH  026%=      5-min Rain = 0
KSB1 250804Z 03004KT 10/M09 A3022 RMK A01 T00991093  RH  025%=      5-min Rain = 0
KSB1 250805Z 03004KT 10/M10 A3022 RMK A01 T01041095  RH  024%=      5-min Rain = 0
KSB1 250806Z 03004KT 11/M10 A3022 RMK A01 T01071095  RH  023%=      5-min Rain = 0
KSB1 250807Z 03004KT 11/M10 A3022 RMK A01 T01081096  RH  023%=      5-min Rain = 0
KSB1 250808Z 02004KT 11/M10 A3022 RMK A01 T01101097  RH  022%=      5-min Rain = 0
KSB1 250809Z 02004KT 11/M10 A3022 RMK A01 T01111095  RH  023%=      5-min Rain = 0
KSB1 250810Z 03004KT 11/M10 A3022 RMK A01 T01111096  RH  022%=      5-min Rain = 0
KSB1 250811Z 02004KT 11/M10 A3022 RMK A01 T01111098  RH  022%=      5-min Rain = 0
KSB1 250812Z 03004KT 11/M10 A3022 RMK A01 T01121099  RH  022%=      5-min Rain = 0
KSB1 250813Z 02004KT 11/M10 A3022 RMK A01 T01131100  RH  021%=      5-min Rain = 0
KSB1 250814Z 01004KT 11/M10 A3022 RMK A01 T01141100  RH  021%=      5-min Rain = 0
KSB1 250815Z 35004KT 11/M10 A3022 RMK A01 T01141101  RH  021%=      5-min Rain = 0
KSB1 250816Z 36004KT 11/M10 A3022 RMK A01 T01141101  RH  021%=      5-min Rain = 0
KSB1 250817Z 01004KT 12/M10 A3022 RMK A01 T01151103  RH  021%=      5-min Rain = 0
KSB1 250818Z 00005KT 12/M10 A3022 RMK A01 T01161104  RH  020%=      5-min Rain = 0
KSB1 250819Z 01005KT 12/M10 A3022 RMK A01 T01171104  RH  020%=      5-min Rain = 0
KSB1 250820Z 00004KT 12/M11 A3022 RMK A01 T01191105  RH  020%=      5-min Rain = 0
KSB1 250821Z 01004KT 12/M11 A3022 RMK A01 T01201106  RH  020%=      5-min Rain = 0
KSB1 250822Z 01004KT 12/M11 A3022 RMK A01 T01221105  RH  019%=      5-min Rain = 0
KSB1 250823Z 01004KT 12/M11 A3022 RMK A01 T01221106  RH  019%=      5-min Rain = 0
KSB1 250824Z 01004KT 12/M11 A3022 RMK A01 T01231106  RH  019%=      5-min Rain = 0
KSB1 250825Z 01004KT 12/M11 A3022 RMK A01 T01231107  RH  019%=      5-min Rain = 0
KSB1 250826Z 00003KT 12/M11 A3022 RMK A01 T01241107  RH  019%=      5-min Rain = 0
KSB1 250827Z 00003KT 12/M11 A3022 RMK A01 T01241107  RH  019%=      5-min Rain = 0
KSB1 250828Z 00002KT 13/M11 A3022 RMK A01 T01251107  RH  019%=      5-min Rain = 0
KSB1 250829Z 35001KT 13/M11 A3022 RMK A01 T01261107  RH  019%=      5-min Rain = 0
KSB1 250830Z 30001KT 12/M10 A3022 RMK A01 T01211102  RH  020%=      5-min Rain = 0
KSB1 250831Z 28001KT 11/M10 A3022 RMK A01 T01111102  RH  021%=      5-min Rain = 0
KSB1 250832Z 27001KT 11/M10 A3022 RMK A01 T01051099  RH  023%=      5-min Rain = 0
KSB1 250833Z 27002KT 10/M10 A3022 RMK A01 T01001098  RH  024%=      5-min Rain = 0
KSB1 250834Z 27002KT 10/M10 A3022 RMK A01 T00981096  RH  024%=      5-min Rain = 0
KSB1 250835Z 28002KT 10/M10 A3022 RMK A01 T00971095  RH  025%=      5-min Rain = 0
KSB1 250836Z 29002KT 10/M09 A3022 RMK A01 T00971094  RH  025%=      5-min Rain = 0
KSB1 250837Z 31002KT 10/M10 A3022 RMK A01 T00971095  RH  025%=      5-min Rain = 0
KSB1 250838Z 34002KT 10/M10 A3022 RMK A01 T01011096  RH  024%=      5-min Rain = 0
KSB1 250839Z 00001KT 11/M10 A3022 RMK A01 T01071097  RH  023%=      5-min Rain = 0
KSB1 250840Z 02001KT 11/M10 A3022 RMK A01 T01121099  RH  022%=      5-min Rain = 0
KSB1 250841Z 03001KT 12/M10 A3022 RMK A01 T01161104  RH  020%=      5-min Rain = 0
KSB1 250842Z 03001KT 12/M11 A3022 RMK A01 T01221107  RH  019%=      5-min Rain = 0
KSB1 250843Z 01001KT 13/M11 A3022 RMK A01 T01261109  RH  018%=      5-min Rain = 0
KSB1 250844Z 36001KT 13/M11 A3022 RMK A01 T01291111  RH  018%=      5-min Rain = 0
KSB1 250845Z 00001KT 13/M11 A3022 RMK A01 T01321111  RH  017%=      5-min Rain = 0
KSB1 250846Z 02002KT 13/M11 A3022 RMK A01 T01341111  RH  017%=      5-min Rain = 0
KSB1 250847Z 02001KT 14/M11 A3022 RMK A01 T01361112  RH  017%=      5-min Rain = 0
KSB1 250848Z 02001KT 14/M11 A3022 RMK A01 T01371112  RH  017%=      5-min Rain = 0
KSB1 250849Z 03001KT 14/M11 A3022 RMK A01 T01381111  RH  017%=      5-min Rain = 0
KSB1 250850Z 04001KT 14/M11 A3022 RMK A01 T01391112  RH  016%=      5-min Rain = 0
KSB1 250851Z 03001KT 14/M11 A3022 RMK A01 T01401112  RH  016%=      5-min Rain = 0
KSB1 250852Z 04001KT 14/M11 A3022 RMK A01 T01401112  RH  016%=      5-min Rain = 0
KSB1 250853Z 04001KT 14/M11 A3022 RMK A01 T01401112  RH  016%=      5-min Rain = 0
KSB1 250854Z 06001KT 14/M11 A3022 RMK A01 T01411111  RH  016%=      5-min Rain = 0
KSB1 250855Z 08001KT 14/M11 A3022 RMK A01 T01401112  RH  016%=      5-min Rain = 0
KSB1 250856Z 12001KT 14/M11 A3022 RMK A01 T01391111  RH  017%=      5-min Rain = 0
KSB1 250857Z 14001KT 14/M11 A3022 RMK A01 T01361109  RH  017%=      5-min Rain = 0
KSB1 250858Z 15001KT 13/M11 A3022 RMK A01 T01321109  RH  018%=      5-min Rain = 0
KSB1 250859Z 16002KT 13/M11 A3022 RMK A01 T01301109  RH  018%=      5-min Rain = 0
KSB1 250900Z 18001KT 13/M11 A3022 RMK A01 T01291108  RH  018%=      5-min Rain = 0
KSB1 250901Z 19001KT 13/M11 A3022 RMK A01 T01261106  RH  019%=      5-min Rain = 0
KSB1 250902Z 20001KT 12/M11 A3022 RMK A01 T01231105  RH  019%=      5-min Rain = 0
KSB1 250903Z 20001KT 12/M11 A3022 RMK A01 T01211105  RH  019%=      5-min Rain = 0
KSB1 250904Z 20000KT 12/M11 A3022 RMK A01 T01211106  RH  019%=      5-min Rain = 0
KSB1 250905Z 00000KT 12/M11 A3022 RMK A01 T01221106  RH  019%=      5-min Rain = 0
KSB1 250906Z 00000KT 12/M11 A3022 RMK A01 T01241106  RH  019%=      5-min Rain = 0
KSB1 250907Z 00000KT 13/M11 A3022 RMK A01 T01261107  RH  019%=      5-min Rain = 0
KSB1 250908Z 00000KT 13/M11 A3022 RMK A01 T01271108  RH  018%=      5-min Rain = 0
KSB1 250909Z 00000KT 13/M11 A3022 RMK A01 T01291108  RH  018%=      5-min Rain = 0
KSB1 250910Z 00000KT 13/M11 A3022 RMK A01 T01301108  RH  018%=      5-min Rain = 0
KSB1 250911Z 00000KT 13/M11 A3022 RMK A01 T01311108  RH  018%=      5-min Rain = 0
KSB1 250912Z 04000KT 13/M11 A3022 RMK A01 T01311109  RH  018%=      5-min Rain = 0
KSB1 250913Z 03000KT 13/M11 A3022 RMK A01 T01301109  RH  018%=      5-min Rain = 0
KSB1 250914Z 00000KT 13/M11 A3022 RMK A01 T01301109  RH  018%=      5-min Rain = 0
KSB1 250915Z 27000KT 13/M11 A3022 RMK A01 T01311109  RH  018%=      5-min Rain = 0
KSB1 250916Z 27001KT 13/M11 A3022 RMK A01 T01321108  RH  018%=      5-min Rain = 0
KSB1 250917Z 26001KT 13/M11 A3022 RMK A01 T01311108  RH  018%=      5-min Rain = 0
KSB1 250918Z 25001KT 13/M11 A3022 RMK A01 T01311108  RH  018%=      5-min Rain = 0
KSB1 250919Z 25001KT 13/M11 A3022 RMK A01 T01301108  RH  018%=      5-min Rain = 0
KSB1 250920Z 24001KT 13/M11 A3022 RMK A01 T01291108  RH  018%=      5-min Rain = 0
KSB1 250921Z 25002KT 13/M11 A3022 RMK A01 T01281108  RH  018%=      5-min Rain = 0
KSB1 250922Z 25002KT 13/M11 A3022 RMK A01 T01261107  RH  019%=      5-min Rain = 0
KSB1 250923Z 24002KT 13/M11 A3022 RMK A01 T01251106  RH  019%=      5-min Rain = 0
KSB1 250924Z 24001KT 13/M11 A3022 RMK A01 T01251106  RH  019%=      5-min Rain = 0
KSB1 250925Z 24002KT 12/M11 A3022 RMK A01 T01241106  RH  019%=      5-min Rain = 0
KSB1 250926Z 24001KT 12/M11 A3022 RMK A01 T01241107  RH  019%=      5-min Rain = 0
KSB1 250927Z 23001KT 13/M11 A3022 RMK A01 T01251109  RH  018%=      5-min Rain = 0
KSB1 250928Z 23001KT 13/M11 A3022 RMK A01 T01281110  RH  018%=      5-min Rain = 0
KSB1 250929Z 22000KT 13/M11 A3022 RMK A01 T01291110  RH  018%=      5-min Rain = 0
KSB1 250930Z 00000KT 13/M11 A3022 RMK A01 T01311112  RH  017%=      5-min Rain = 0
KSB1 250931Z 11000KT 13/M11 A3022 RMK A01 T01331113  RH  017%=      5-min Rain = 0
KSB1 250932Z 11001KT 13/M11 A3022 RMK A01 T01341114  RH  017%=      5-min Rain = 0
KSB1 250933Z 09001KT 14/M11 A3022 RMK A01 T01351114  RH  017%=      5-min Rain = 0
KSB1 250934Z 08001KT 14/M12 A3022 RMK A01 T01351115  RH  016%=      5-min Rain = 0
KSB1 250935Z 06001KT 14/M11 A3022 RMK A01 T01361114  RH  016%=      5-min Rain = 0
KSB1 250936Z 05000KT 14/M12 A3022 RMK A01 T01361115  RH  016%=      5-min Rain = 0
KSB1 250937Z 05000KT 14/M11 A3022 RMK A01 T01361114  RH  017%=      5-min Rain = 0
KSB1 250938Z 00000KT 14/M11 A3022 RMK A01 T01361113  RH  017%=      5-min Rain = 0
KSB1 250939Z 00000KT 14/M11 A3022 RMK A01 T01351112  RH  017%=      5-min Rain = 0
KSB1 250940Z 00000KT 14/M11 A3022 RMK A01 T01351112  RH  017%=      5-min Rain = 0
KSB1 250941Z 00000KT 14/M11 A3022 RMK A01 T01351114  RH  017%=      5-min Rain = 0
KSB1 250942Z 00000KT 13/M11 A3022 RMK A01 T01341114  RH  017%=      5-min Rain = 0
KSB1 250943Z 00000KT 13/M12 A3022 RMK A01 T01341115  RH  017%=      5-min Rain = 0
KSB1 250944Z 00000KT 13/M12 A3022 RMK A01 T01341115  RH  017%=      5-min Rain = 0
KSB1 250945Z 00000KT 13/M11 A3022 RMK A01 T01341114  RH  017%=      5-min Rain = 0
KSB1 250946Z 00000KT 13/M11 A3022 RMK A01 T01331114  RH  017%=      5-min Rain = 0
KSB1 250947Z 10001KT 13/M12 A3022 RMK A01 T01331115  RH  017%=      5-min Rain = 0
KSB1 250948Z 10001KT 13/M12 A3022 RMK A01 T01331115  RH  017%=      5-min Rain = 0
KSB1 250949Z 11001KT 13/M12 A3022 RMK A01 T01341115  RH  017%=      5-min Rain = 0
KSB1 250950Z 11001KT 13/M12 A3022 RMK A01 T01341115  RH  017%=      5-min Rain = 0
KSB1 250951Z 11001KT 13/M12 A3022 RMK A01 T01341115  RH  017%=      5-min Rain = 0
KSB1 250952Z 11000KT 14/M12 A3022 RMK A01 T01351115  RH  017%=      5-min Rain = 0
KSB1 250953Z 00000KT 14/M12 A3022 RMK A01 T01351115  RH  017%=      5-min Rain = 0
KSB1 250954Z 03001KT 14/M11 A3022 RMK A01 T01351114  RH  017%=      5-min Rain = 0
KSB1 250955Z 03001KT 13/M12 A3022 RMK A01 T01341115  RH  017%=      5-min Rain = 0
KSB1 250956Z 02001KT 14/M11 A3022 RMK A01 T01351114  RH  017%=      5-min Rain = 0
KSB1 250957Z 03001KT 14/M11 A3022 RMK A01 T01351114  RH  017%=      5-min Rain = 0
KSB1 250958Z 00000KT 14/M11 A3022 RMK A01 T01361113  RH  017%=      5-min Rain = 0
KSB1 250959Z 00000KT 14/M11 A3022 RMK A01 T01361114  RH  017%=      5-min Rain = 0
KSB1 251000Z 30000KT 14/M11 A3022 RMK A01 T01351113  RH  017%=      5-min Rain = 0
KSB1 251001Z 28001KT 14/M11 A3022 RMK A01 T01351114  RH  017%=      5-min Rain = 0
KSB1 251002Z 28001KT 14/M11 A3022 RMK A01 T01351113  RH  017%=      5-min Rain = 0
KSB1 251003Z 28001KT 13/M11 A3022 RMK A01 T01341113  RH  017%=      5-min Rain = 0
KSB1 251004Z 28001KT 13/M11 A3022 RMK A01 T01341114  RH  017%=      5-min Rain = 0
KSB1 251005Z 28002KT 13/M11 A3022 RMK A01 T01341114  RH  017%=      5-min Rain = 0
KSB1 251006Z 28002KT 14/M11 A3022 RMK A01 T01361114  RH  017%=      5-min Rain = 0
KSB1 251007Z 27002KT 14/M11 A3022 RMK A01 T01361114  RH  016%=      5-min Rain = 0
KSB1 251008Z 26002KT 14/M11 A3022 RMK A01 T01361113  RH  017%=      5-min Rain = 0
KSB1 251009Z 25002KT 14/M11 A3022 RMK A01 T01351113  RH  017%=      5-min Rain = 0
KSB1 251010Z 25003KT 13/M11 A3022 RMK A01 T01341113  RH  017%=      5-min Rain = 0
KSB1 251011Z 25002KT 13/M11 A3022 RMK A01 T01331112  RH  017%=      5-min Rain = 0
KSB1 251012Z 24002KT 13/M11 A3022 RMK A01 T01321112  RH  017%=      5-min Rain = 0
KSB1 251013Z 25002KT 13/M11 A3022 RMK A01 T01321112  RH  017%=      5-min Rain = 0
KSB1 251014Z 25002KT 13/M11 A3022 RMK A01 T01321110  RH  017%=      5-min Rain = 0
KSB1 251015Z 27001KT 13/M11 A3022 RMK A01 T01321109  RH  018%=      5-min Rain = 0
KSB1 251016Z 27001KT 13/M11 A3022 RMK A01 T01311108  RH  018%=      5-min Rain = 0
KSB1 251017Z 00000KT 13/M11 A3022 RMK A01 T01311110  RH  018%=      5-min Rain = 0
KSB1 251018Z 05003KT 13/M11 A3022 RMK A01 T01321111  RH  017%=      5-min Rain = 0
KSB1 251019Z 03005KT 13/M10 A3022 RMK A01 T01251099  RH  020%=      5-min Rain = 0
KSB1 251020Z 02005KT 11/M10 A3022 RMK A01 T01101097  RH  022%=      5-min Rain = 0
KSB1 251021Z 00005KT 10/M10 A3022 RMK A01 T00971097  RH  024%=      5-min Rain = 0
KSB1 251022Z 35006KT 09/M10 A3022 RMK A01 T00881099  RH  026%=      5-min Rain = 0
KSB1 251023Z 35006KT 08/M10 A3022 RMK A01 T00821101  RH  026%=      5-min Rain = 0
KSB1 251024Z 34006KT 08/M10 A3022 RMK A01 T00841103  RH  025%=      5-min Rain = 0
KSB1 251025Z 33006KT 09/M10 A3022 RMK A01 T00901104  RH  024%=      5-min Rain = 0
KSB1 251026Z 33005KT 09/M10 A3022 RMK A01 T00941103  RH  024%=      5-min Rain = 0
KSB1 251027Z 33005KT 10/M10 A3022 RMK A01 T00961104  RH  023%=      5-min Rain = 0
KSB1 251028Z 34004KT 10/M11 A3022 RMK A01 T00981105  RH  023%=      5-min Rain = 0
KSB1 251029Z 34003KT 10/M11 A3022 RMK A01 T01021105  RH  022%=      5-min Rain = 0
KSB1 251030Z 34003KT 11/M10 A3022 RMK A01 T01061104  RH  022%=      5-min Rain = 0
KSB1 251031Z 36003KT 11/M10 A3022 RMK A01 T01091104  RH  021%=      5-min Rain = 0
KSB1 251032Z 01004KT 11/M11 A3022 RMK A01 T01121105  RH  021%=      5-min Rain = 0
KSB1 251033Z 01005KT 11/M11 A3022 RMK A01 T01141105  RH  020%=      5-min Rain = 0
KSB1 251034Z 00006KT 12/M11 A3022 RMK A01 T01151105  RH  020%=      5-min Rain = 0
KSB1 251035Z 00007KT 12/M11 A3022 RMK A01 T01151105  RH  020%=      5-min Rain = 0
KSB1 251036Z 00007KT 12/M11 A3022 RMK A01 T01161106  RH  020%=      5-min Rain = 0
KSB1 251037Z 35007KT 12/M11 A3022 RMK A01 T01171106  RH  020%=      5-min Rain = 0
KSB1 251038Z 35007KT 12/M11 A3022 RMK A01 T01181106  RH  020%=      5-min Rain = 0
KSB1 251039Z 35007KT 12/M11 A3022 RMK A01 T01181105  RH  020%=      5-min Rain = 0
KSB1 251040Z 35007KT 12/M11 A3022 RMK A01 T01181105  RH  020%=      5-min Rain = 0
KSB1 251041Z 35007KT 12/M10 A3022 RMK A01 T01171104  RH  020%=      5-min Rain = 0
KSB1 251042Z 35007KT 12/M11 A3022 RMK A01 T01161105  RH  020%=      5-min Rain = 0
KSB1 251043Z 35007KT 12/M11 A3022 RMK A01 T01171106  RH  020%=      5-min Rain = 0
KSB1 251044Z 35006KT 12/M11 A3022 RMK A01 T01171106  RH  020%=      5-min Rain = 0
KSB1 251045Z 36006KT 12/M11 A3022 RMK A01 T01191106  RH  020%=      5-min Rain = 0
KSB1 251046Z 00006KT 12/M11 A3022 RMK A01 T01201106  RH  019%=      5-min Rain = 0
KSB1 251047Z 00006KT 12/M11 A3022 RMK A01 T01221106  RH  019%=      5-min Rain = 0
KSB1 251048Z 00006KT 12/M11 A3022 RMK A01 T01231105  RH  019%=      5-min Rain = 0
KSB1 251049Z 36006KT 12/M11 A3022 RMK A01 T01241105  RH  019%=      5-min Rain = 0
KSB1 251050Z 35005KT 12/M11 A3022 RMK A01 T01241105  RH  019%=      5-min Rain = 0
KSB1 251051Z 35005KT 13/M11 A3022 RMK A01 T01251105  RH  019%=      5-min Rain = 0
KSB1 251052Z 35005KT 13/M10 A3022 RMK A01 T01251104  RH  019%=      5-min Rain = 0
KSB1 251053Z 34005KT 13/M10 A3022 RMK A01 T01251103  RH  019%=      5-min Rain = 0
KSB1 251054Z 35005KT 13/M10 A3022 RMK A01 T01251102  RH  019%=      5-min Rain = 0
KSB1 251055Z 34005KT 12/M10 A3022 RMK A01 T01241102  RH  020%=      5-min Rain = 0
KSB1 251056Z 35005KT 12/M10 A3022 RMK A01 T01231101  RH  020%=      5-min Rain = 0
KSB1 251057Z 35005KT 12/M10 A3022 RMK A01 T01231101  RH  020%=      5-min Rain = 0
KSB1 251058Z 35005KT 12/M10 A3022 RMK A01 T01231100  RH  020%=      5-min Rain = 0
KSB1 251059Z 35005KT 12/M10 A3022 RMK A01 T01231100  RH  020%=      5-min Rain = 0
KSB1 251100Z 35004KT 12/M10 A3022 RMK A01 T01241099  RH  020%=      5-min Rain = 0
KSB1 251101Z 35004KT 13/M10 A3022 RMK A01 T01261099  RH  020%=      5-min Rain = 0
KSB1 251102Z 35004KT 13/M10 A3022 RMK A01 T01271098  RH  020%=      5-min Rain = 0
KSB1 251103Z 35005KT 13/M10 A3022 RMK A01 T01291098  RH  020%=      5-min Rain = 0
KSB1 251104Z 35004KT 13/M10 A3022 RMK A01 T01291098  RH  020%=      5-min Rain = 0
KSB1 251105Z 34004KT 13/M10 A3022 RMK A01 T01291098  RH  020%=      5-min Rain = 0
KSB1 251106Z 35003KT 13/M10 A3022 RMK A01 T01291098  RH  020%=      5-min Rain = 0
KSB1 251107Z 35004KT 13/M10 A3023 RMK A01 T01291097  RH  020%=      5-min Rain = 0
KSB1 251108Z 35004KT 13/M10 A3023 RMK A01 T01291096  RH  020%=      5-min Rain = 0
KSB1 251109Z 35004KT 13/M10 A3023 RMK A01 T01281096  RH  020%=      5-min Rain = 0
KSB1 251110Z 35004KT 13/M10 A3023 RMK A01 T01281096  RH  020%=      5-min Rain = 0
KSB1 251111Z 36003KT 13/M10 A3023 RMK A01 T01271097  RH  020%=      5-min Rain = 0
KSB1 251112Z 34004KT 13/M10 A3022 RMK A01 T01281096  RH  020%=      5-min Rain = 0
KSB1 251113Z 34004KT 13/M10 A3022 RMK A01 T01281096  RH  020%=      5-min Rain = 0
KSB1 251114Z 35004KT 13/M10 A3022 RMK A01 T01291095  RH  020%=      5-min Rain = 0
KSB1 251115Z 34004KT 13/M09 A3022 RMK A01 T01301094  RH  020%=      5-min Rain = 0
KSB1 251116Z 33004KT 13/M09 A3022 RMK A01 T01301094  RH  020%=      5-min Rain = 0
KSB1 251117Z 33004KT 13/M09 A3022 RMK A01 T01301094  RH  020%=      5-min Rain = 0
KSB1 251118Z 33004KT 13/M09 A3023 RMK A01 T01291094  RH  020%=      5-min Rain = 0
KSB1 251119Z 33003KT 13/M09 A3023 RMK A01 T01291094  RH  020%=      5-min Rain = 0
KSB1 251120Z 33004KT 13/M09 A3023 RMK A01 T01301094  RH  020%=      5-min Rain = 0
KSB1 251121Z 33004KT 13/M09 A3023 RMK A01 T01311093  RH  020%=      5-min Rain = 0
KSB1 251122Z 33004KT 13/M09 A3023 RMK A01 T01311093  RH  020%=      5-min Rain = 0
KSB1 251123Z 33004KT 13/M09 A3023 RMK A01 T01311092  RH  020%=      5-min Rain = 0
KSB1 251124Z 32004KT 13/M09 A3023 RMK A01 T01311091  RH  020%=      5-min Rain = 0
KSB1 251125Z 32004KT 13/M09 A3023 RMK A01 T01301091  RH  021%=      5-min Rain = 0
KSB1 251126Z 33003KT 13/M09 A3023 RMK A01 T01281091  RH  021%=      5-min Rain = 0
KSB1 251127Z 33003KT 13/M09 A3023 RMK A01 T01271091  RH  021%=      5-min Rain = 0
KSB1 251128Z 33003KT 13/M09 A3023 RMK A01 T01271091  RH  021%=      5-min Rain = 0
KSB1 251129Z 34003KT 13/M09 A3023 RMK A01 T01271091  RH  021%=      5-min Rain = 0
KSB1 251130Z 34003KT 13/M09 A3023 RMK A01 T01291092  RH  021%=      5-min Rain = 0
KSB1 251131Z 34004KT 13/M09 A3023 RMK A01 T01311092  RH  020%=      5-min Rain = 0
KSB1 251132Z 34004KT 13/M09 A3023 RMK A01 T01321092  RH  020%=      5-min Rain = 0
KSB1 251133Z 34004KT 13/M09 A3023 RMK A01 T01321091  RH  020%=      5-min Rain = 0
KSB1 251134Z 34004KT 13/M09 A3023 RMK A01 T01311091  RH  020%=      5-min Rain = 0
KSB1 251135Z 34004KT 13/M09 A3023 RMK A01 T01311091  RH  020%=      5-min Rain = 0
KSB1 251136Z 34004KT 13/M09 A3023 RMK A01 T01301091  RH  021%=      5-min Rain = 0
KSB1 251137Z 34004KT 13/M09 A3023 RMK A01 T01301091  RH  021%=      5-min Rain = 0
KSB1 251138Z 34004KT 13/M09 A3023 RMK A01 T01301092  RH  020%=      5-min Rain = 0
KSB1 251139Z 34004KT 13/M09 A3023 RMK A01 T01301092  RH  020%=      5-min Rain = 0
KSB1 251140Z 34004KT 13/M09 A3023 RMK A01 T01311092  RH  020%=      5-min Rain = 0
KSB1 251141Z 33004KT 13/M09 A3023 RMK A01 T01311092  RH  020%=      5-min Rain = 0
KSB1 251142Z 34004KT 13/M09 A3023 RMK A01 T01311092  RH  020%=      5-min Rain = 0
KSB1 251143Z 33004KT 13/M09 A3023 RMK A01 T01311092  RH  020%=      5-min Rain = 0
KSB1 251144Z 33004KT 13/M09 A3023 RMK A01 T01311092  RH  020%=      5-min Rain = 0
KSB1 251145Z 33004KT 13/M09 A3023 RMK A01 T01311091  RH  020%=      5-min Rain = 0
KSB1 251146Z 33004KT 13/M09 A3023 RMK A01 T01301092  RH  020%=      5-min Rain = 0
KSB1 251147Z 34004KT 13/M09 A3023 RMK A01 T01301092  RH  020%=      5-min Rain = 0
KSB1 251148Z 34004KT 13/M09 A3023 RMK A01 T01311092  RH  020%=      5-min Rain = 0
KSB1 251149Z 33004KT 13/M09 A3023 RMK A01 T01311092  RH  020%=      5-min Rain = 0
KSB1 251150Z 33004KT 13/M09 A3023 RMK A01 T01311092  RH  020%=      5-min Rain = 0
KSB1 251151Z 34004KT 13/M09 A3023 RMK A01 T01301092  RH  020%=      5-min Rain = 0
KSB1 251152Z 34004KT 13/M09 A3023 RMK A01 T01301092  RH  020%=      5-min Rain = 0
KSB1 251153Z 33004KT 13/M09 A3023 RMK A01 T01301092  RH  020%=      5-min Rain = 0
KSB1 251154Z 33004KT 13/M09 A3023 RMK A01 T01311093  RH  020%=      5-min Rain = 0
KSB1 251155Z 33004KT 13/M09 A3023 RMK A01 T01311093  RH  020%=      5-min Rain = 0
KSB1 251156Z 34004KT 13/M09 A3023 RMK A01 T01311092  RH  020%=      5-min Rain = 0
KSB1 251157Z 34004KT 13/M09 A3023 RMK A01 T01301092  RH  020%=      5-min Rain = 0
KSB1 251158Z 33004KT 13/M09 A3023 RMK A01 T01301092  RH  020%=      5-min Rain = 0
KSB1 251159Z 34004KT 13/M09 A3023 RMK A01 T01301092  RH  020%=      5-min Rain = 0
KSB1 251200Z 34004KT 13/M09 A3023 RMK A01 T01301092  RH  020%=      5-min Rain = 0
KSB1 251201Z 34004KT 13/M09 A3023 RMK A01 T01301093  RH  020%=      5-min Rain = 0
KSB1 251202Z 33004KT 13/M09 A3023 RMK A01 T01301092  RH  020%=      5-min Rain = 0
KSB1 251203Z 33004KT 13/M09 A3023 RMK A01 T01301093  RH  020%=      5-min Rain = 0
KSB1 251204Z 34004KT 13/M09 A3023 RMK A01 T01311093  RH  020%=      5-min Rain = 0
KSB1 251205Z 33004KT 13/M09 A3023 RMK A01 T01321093  RH  020%=      5-min Rain = 0
KSB1 251206Z 33004KT 13/M09 A3023 RMK A01 T01331092  RH  020%=      5-min Rain = 0
KSB1 251207Z 33003KT 13/M09 A3023 RMK A01 T01331093  RH  020%=      5-min Rain = 0
KSB1 251208Z 34003KT 13/M09 A3023 RMK A01 T01341093  RH  020%=      5-min Rain = 0
KSB1 251209Z 34003KT 14/M09 A3023 RMK A01 T01351093  RH  020%=      5-min Rain = 0
KSB1 251210Z 33003KT 14/M09 A3023 RMK A01 T01351093  RH  020%=      5-min Rain = 0
KSB1 251211Z 34003KT 14/M09 A3023 RMK A01 T01361094  RH  019%=      5-min Rain = 0
KSB1 251212Z 33003KT 14/M09 A3023 RMK A01 T01371094  RH  019%=      5-min Rain = 0
KSB1 251213Z 33003KT 14/M09 A3023 RMK A01 T01371094  RH  019%=      5-min Rain = 0
KSB1 251214Z 33003KT 14/M09 A3023 RMK A01 T01371093  RH  019%=      5-min Rain = 0
KSB1 251215Z 33003KT 14/M09 A3023 RMK A01 T01371093  RH  019%=      5-min Rain = 0
KSB1 251216Z 33003KT 14/M09 A3023 RMK A01 T01361093  RH  020%=      5-min Rain = 0
KSB1 251217Z 33003KT 14/M09 A3023 RMK A01 T01351092  RH  020%=      5-min Rain = 0
KSB1 251218Z 33003KT 13/M09 A3023 RMK A01 T01341093  RH  020%=      5-min Rain = 0
KSB1 251219Z 33003KT 13/M09 A3023 RMK A01 T01341093  RH  020%=      5-min Rain = 0
KSB1 251220Z 33003KT 13/M09 A3023 RMK A01 T01341093  RH  020%=      5-min Rain = 0
KSB1 251221Z 33003KT 14/M09 A3023 RMK A01 T01351093  RH  020%=      5-min Rain = 0
KSB1 251222Z 33003KT 14/M09 A3023 RMK A01 T01361094  RH  019%=      5-min Rain = 0
KSB1 251223Z 34002KT 14/M09 A3023 RMK A01 T01371093  RH  019%=      5-min Rain = 0
KSB1 251224Z 33002KT 14/M09 A3023 RMK A01 T01371093  RH  019%=      5-min Rain = 0
KSB1 251225Z 34002KT 14/M09 A3023 RMK A01 T01381093  RH  019%=      5-min Rain = 0
KSB1 251226Z 32002KT 14/M09 A3023 RMK A01 T01371093  RH  019%=      5-min Rain = 0
KSB1 251227Z 28001KT 14/M09 A3023 RMK A01 T01371094  RH  019%=      5-min Rain = 0
KSB1 251228Z 27002KT 14/M09 A3023 RMK A01 T01381093  RH  019%=      5-min Rain = 0
KSB1 251229Z 28002KT 14/M09 A3023 RMK A01 T01361093  RH  019%=      5-min Rain = 0
KSB1 251230Z 28001KT 14/M09 A3023 RMK A01 T01361093  RH  019%=      5-min Rain = 0
KSB1 251231Z 28001KT 14/M09 A3023 RMK A01 T01361093  RH  020%=      5-min Rain = 0
KSB1 251232Z 29001KT 14/M09 A3024 RMK A01 T01351093  RH  020%=      5-min Rain = 0
KSB1 251233Z 29001KT 14/M09 A3024 RMK A01 T01351093  RH  020%=      5-min Rain = 0
KSB1 251234Z 28001KT 14/M09 A3024 RMK A01 T01351094  RH  020%=      5-min Rain = 0
KSB1 251235Z 28002KT 14/M09 A3024 RMK A01 T01351094  RH  019%=      5-min Rain = 0
KSB1 251236Z 28002KT 14/M09 A3024 RMK A01 T01351093  RH  020%=      5-min Rain = 0
KSB1 251237Z 28002KT 14/M09 A3024 RMK A01 T01351093  RH  020%=      5-min Rain = 0
KSB1 251238Z 28002KT 14/M09 A3024 RMK A01 T01351093  RH  020%=      5-min Rain = 0
KSB1 251239Z 28002KT 13/M09 A3024 RMK A01 T01341092  RH  020%=      5-min Rain = 0
KSB1 251240Z 28002KT 13/M09 A3024 RMK A01 T01321092  RH  020%=      5-min Rain = 0
KSB1 251241Z 28002KT 13/M09 A3024 RMK A01 T01301092  RH  020%=      5-min Rain = 0
KSB1 251242Z 28002KT 13/M09 A3024 RMK A01 T01301091  RH  021%=      5-min Rain = 0
KSB1 251243Z 28003KT 13/M09 A3024 RMK A01 T01301091  RH  021%=      5-min Rain = 0
KSB1 251244Z 28003KT 13/M09 A3024 RMK A01 T01301091  RH  021%=      5-min Rain = 0
KSB1 251245Z 28002KT 13/M09 A3024 RMK A01 T01301091  RH  021%=      5-min Rain = 0
KSB1 251246Z 28002KT 13/M09 A3024 RMK A01 T01301092  RH  020%=      5-min Rain = 0
KSB1 251247Z 28002KT 13/M09 A3024 RMK A01 T01311092  RH  020%=      5-min Rain = 0
KSB1 251248Z 28002KT 13/M09 A3024 RMK A01 T01311092  RH  020%=      5-min Rain = 0
KSB1 251249Z 28002KT 13/M09 A3024 RMK A01 T01321092  RH  020%=      5-min Rain = 0
KSB1 251250Z 28002KT 13/M09 A3024 RMK A01 T01331091  RH  020%=      5-min Rain = 0
KSB1 251251Z 29001KT 13/M09 A3024 RMK A01 T01341092  RH  020%=      5-min Rain = 0
KSB1 251252Z 30001KT 13/M09 A3024 RMK A01 T01341092  RH  020%=      5-min Rain = 0
KSB1 251253Z 30001KT 13/M09 A3025 RMK A01 T01341093  RH  020%=      5-min Rain = 0
KSB1 251254Z 33001KT 14/M09 A3025 RMK A01 T01351093  RH  020%=      5-min Rain = 0
KSB1 251255Z 00001KT 14/M09 A3025 RMK A01 T01371093  RH  019%=      5-min Rain = 0
KSB1 251256Z 01001KT 14/M09 A3025 RMK A01 T01391094  RH  019%=      5-min Rain = 0
KSB1 251257Z 01001KT 14/M09 A3025 RMK A01 T01391094  RH  019%=      5-min Rain = 0
KSB1 251258Z 01002KT 14/M09 A3025 RMK A01 T01391094  RH  019%=      5-min Rain = 0
KSB1 251259Z 01002KT 14/M09 A3025 RMK A01 T01391094  RH  019%=      5-min Rain = 0
KSB1 251300Z 02001KT 14/M09 A3025 RMK A01 T01391094  RH  019%=      5-min Rain = 0
KSB1 251301Z 02001KT 14/M09 A3025 RMK A01 T01391094  RH  019%=      5-min Rain = 0
KSB1 251302Z 01001KT 14/M09 A3025 RMK A01 T01401094  RH  019%=      5-min Rain = 0
KSB1 251303Z 36001KT 14/M09 A3025 RMK A01 T01401094  RH  019%=      5-min Rain = 0
KSB1 251304Z 35001KT 14/M09 A3025 RMK A01 T01401094  RH  019%=      5-min Rain = 0
KSB1 251305Z 34001KT 14/M09 A3025 RMK A01 T01401094  RH  019%=      5-min Rain = 0
KSB1 251306Z 34001KT 14/M09 A3025 RMK A01 T01401094  RH  019%=      5-min Rain = 0
KSB1 251307Z 35001KT 14/M09 A3025 RMK A01 T01401094  RH  019%=      5-min Rain = 0
KSB1 251308Z 35001KT 14/M09 A3025 RMK A01 T01401094  RH  019%=      5-min Rain = 0
KSB1 251309Z 35001KT 14/M10 A3025 RMK A01 T01401095  RH  019%=      5-min Rain = 0
KSB1 251310Z 35001KT 14/M10 A3025 RMK A01 T01411095  RH  019%=      5-min Rain = 0
KSB1 251311Z 35002KT 14/M09 A3025 RMK A01 T01421094  RH  019%=      5-min Rain = 0
KSB1 251312Z 00002KT 14/M09 A3025 RMK A01 T01421094  RH  019%=      5-min Rain = 0
KSB1 251313Z 01002KT 14/M09 A3025 RMK A01 T01421094  RH  019%=      5-min Rain = 0
KSB1 251314Z 01002KT 14/M09 A3025 RMK A01 T01421094  RH  019%=      5-min Rain = 0
KSB1 251315Z 02002KT 14/M09 A3025 RMK A01 T01421094  RH  019%=      5-min Rain = 0
KSB1 251316Z 02002KT 14/M09 A3025 RMK A01 T01421094  RH  019%=      5-min Rain = 0
KSB1 251317Z 02002KT 14/M09 A3025 RMK A01 T01411094  RH  019%=      5-min Rain = 0
KSB1 251318Z 03002KT 14/M09 A3025 RMK A01 T01411094  RH  019%=      5-min Rain = 0
KSB1 251319Z 03002KT 14/M09 A3025 RMK A01 T01401094  RH  019%=      5-min Rain = 0
KSB1 251320Z 02002KT 14/M09 A3025 RMK A01 T01401094  RH  019%=      5-min Rain = 0
KSB1 251321Z 01002KT 14/M09 A3025 RMK A01 T01391094  RH  019%=      5-min Rain = 0
KSB1 251322Z 01002KT 14/M09 A3025 RMK A01 T01391094  RH  019%=      5-min Rain = 0
KSB1 251323Z 01002KT 14/M09 A3025 RMK A01 T01391093  RH  019%=      5-min Rain = 0
KSB1 251324Z 01002KT 14/M09 A3025 RMK A01 T01371092  RH  019%=      5-min Rain = 0
KSB1 251325Z 01002KT 14/M09 A3025 RMK A01 T01371093  RH  019%=      5-min Rain = 0
KSB1 251326Z 01002KT 14/M09 A3025 RMK A01 T01361091  RH  020%=      5-min Rain = 0
KSB1 251327Z 02002KT 13/M09 A3025 RMK A01 T01341091  RH  020%=      5-min Rain = 0
KSB1 251328Z 03002KT 13/M09 A3025 RMK A01 T01341092  RH  020%=      5-min Rain = 0
KSB1 251329Z 04002KT 13/M09 A3025 RMK A01 T01341093  RH  020%=      5-min Rain = 0
KSB1 251330Z 04002KT 13/M09 A3025 RMK A01 T01341093  RH  020%=      5-min Rain = 0
KSB1 251331Z 04002KT 13/M09 A3025 RMK A01 T01341093  RH  020%=      5-min Rain = 0
KSB1 251332Z 04002KT 13/M09 A3025 RMK A01 T01341093  RH  020%=      5-min Rain = 0
KSB1 251333Z 04002KT 14/M09 A3025 RMK A01 T01351093  RH  020%=      5-min Rain = 0
KSB1 251334Z 03002KT 14/M09 A3025 RMK A01 T01351089  RH  020%=      5-min Rain = 0
KSB1 251335Z 03002KT 14/M09 A3025 RMK A01 T01351089  RH  020%=      5-min Rain = 0
KSB1 251336Z 04002KT 14/M09 A3025 RMK A01 T01351090  RH  020%=      5-min Rain = 0
KSB1 251337Z 03002KT 14/M09 A3025 RMK A01 T01351091  RH  020%=      5-min Rain = 0
KSB1 251338Z 02001KT 14/M09 A3025 RMK A01 T01351091  RH  020%=      5-min Rain = 0
KSB1 251339Z 02001KT 14/M09 A3026 RMK A01 T01351091  RH  020%=      5-min Rain = 0
KSB1 251340Z 02001KT 14/M09 A3026 RMK A01 T01351092  RH  020%=      5-min Rain = 0
KSB1 251341Z 02001KT 14/M09 A3026 RMK A01 T01351090  RH  020%=      5-min Rain = 0
KSB1 251342Z 02001KT 14/M09 A3026 RMK A01 T01351091  RH  020%=      5-min Rain = 0
KSB1 251343Z 02001KT 13/M08 A3026 RMK A01 T01341081  RH  022%=      5-min Rain = 0
KSB1 251344Z 01000KT 12/M07 A3026 RMK A01 T01241074  RH  024%=      5-min Rain = 0
KSB1 251345Z 34001KT 12/M08 A3026 RMK A01 T01221080  RH  024%=      5-min Rain = 0
KSB1 251346Z 34001KT 12/M08 A3026 RMK A01 T01221083  RH  023%=      5-min Rain = 0
KSB1 251347Z 34001KT 12/M09 A3026 RMK A01 T01231087  RH  022%=      5-min Rain = 0
KSB1 251348Z 34001KT 12/M08 A3026 RMK A01 T01241083  RH  023%=      5-min Rain = 0
KSB1 251349Z 34001KT 13/M08 A3026 RMK A01 T01251084  RH  022%=      5-min Rain = 0
KSB1 251350Z 34001KT 13/M09 A3025 RMK A01 T01261085  RH  022%=      5-min Rain = 0
KSB1 251351Z 34001KT 13/M09 A3026 RMK A01 T01261085  RH  022%=      5-min Rain = 0
KSB1 251352Z 34001KT 13/M08 A3026 RMK A01 T01271082  RH  022%=      5-min Rain = 0
KSB1 251353Z 34002KT 13/M09 A3026 RMK A01 T01281085  RH  022%=      5-min Rain = 0
KSB1 251354Z 34002KT 13/M09 A3026 RMK A01 T01291088  RH  021%=      5-min Rain = 0
KSB1 251355Z 34001KT 13/M09 A3026 RMK A01 T01301089  RH  021%=      5-min Rain = 0
KSB1 251356Z 33001KT 13/M09 A3026 RMK A01 T01321088  RH  021%=      5-min Rain = 0
KSB1 251357Z 32002KT 13/M09 A3026 RMK A01 T01331089  RH  020%=      5-min Rain = 0
KSB1 251358Z 32001KT 14/M09 A3026 RMK A01 T01351087  RH  021%=      5-min Rain = 0
KSB1 251359Z 32001KT 14/M08 A3026 RMK A01 T01361083  RH  021%=      5-min Rain = 0
KSB1 251400Z 32000KT 14/M08 A3026 RMK A01 T01371082  RH  021%=      5-min Rain = 0
KSB1 251401Z 26000KT 14/M08 A3026 RMK A01 T01381078  RH  022%=      5-min Rain = 0
KSB1 251402Z 26000KT 14/M08 A3026 RMK A01 T01381076  RH  022%=      5-min Rain = 0
KSB1 251403Z 00000KT 14/M08 A3026 RMK A01 T01381075  RH  022%=      5-min Rain = 0
KSB1 251404Z 00000KT 14/M07 A3026 RMK A01 T01391073  RH  022%=      5-min Rain = 0
KSB1 251405Z 00000KT 14/M07 A3026 RMK A01 T01401074  RH  022%=      5-min Rain = 0
KSB1 251406Z 00000KT 14/M07 A3026 RMK A01 T01411072  RH  022%=      5-min Rain = 0
KSB1 251407Z 00000KT 14/M06 A3026 RMK A01 T01421058  RH  024%=      5-min Rain = 0
KSB1 251408Z 00000KT 14/M06 A3026 RMK A01 T01431063  RH  023%=      5-min Rain = 0
KSB1 251409Z 00000KT 15/M07 A3026 RMK A01 T01451069  RH  022%=      5-min Rain = 0
KSB1 251410Z 00000KT 15/M05 A3026 RMK A01 T01471050  RH  025%=      5-min Rain = 0
KSB1 251411Z 19001KT 15/M05 A3026 RMK A01 T01491046  RH  026%=      5-min Rain = 0
KSB1 251412Z 19001KT 15/M07 A3026 RMK A01 T01481065  RH  022%=      5-min Rain = 0
KSB1 251413Z 20001KT 15/M07 A3026 RMK A01 T01451074  RH  021%=      5-min Rain = 0
KSB1 251414Z 20001KT 14/M07 A3026 RMK A01 T01431074  RH  022%=      5-min Rain = 0
KSB1 251415Z 19001KT 14/M07 A3026 RMK A01 T01421072  RH  022%=      5-min Rain = 0
KSB1 251416Z 17001KT 14/M07 A3026 RMK A01 T01421067  RH  023%=      5-min Rain = 0
KSB1 251417Z 15001KT 14/M06 A3026 RMK A01 T01411062  RH  024%=      5-min Rain = 0
KSB1 251418Z 15001KT 14/M06 A3026 RMK A01 T01421055  RH  025%=      5-min Rain = 0
KSB1 251419Z 15001KT 14/M05 A3026 RMK A01 T01431049  RH  026%=      5-min Rain = 0
KSB1 251420Z 13001KT 14/M05 A3026 RMK A01 T01431045  RH  027%=      5-min Rain = 0
KSB1 251421Z 13001KT 14/M04 A3026 RMK A01 T01431042  RH  028%=      5-min Rain = 0
KSB1 251422Z 13001KT 14/M04 A3026 RMK A01 T01421042  RH  028%=      5-min Rain = 0
KSB1 251423Z 13001KT 14/M04 A3026 RMK A01 T01401044  RH  028%=      5-min Rain = 0
KSB1 251424Z 12000KT 14/M05 A3026 RMK A01 T01391046  RH  028%=      5-min Rain = 0
KSB1 251425Z 12000KT 14/M05 A3026 RMK A01 T01371048  RH  027%=      5-min Rain = 0
KSB1 251426Z 00000KT 14/M05 A3026 RMK A01 T01361048  RH  028%=      5-min Rain = 0
KSB1 251427Z 00000KT 13/M05 A3026 RMK A01 T01341051  RH  027%=      5-min Rain = 0
KSB1 251428Z 00000KT 13/M06 A3026 RMK A01 T01341055  RH  026%=      5-min Rain = 0
KSB1 251429Z 00000KT 14/M05 A3027 RMK A01 T01351054  RH  027%=      5-min Rain = 0
KSB1 251430Z 00000KT 14/M06 A3027 RMK A01 T01361060  RH  025%=      5-min Rain = 0
KSB1 251431Z 00000KT 14/M07 A3027 RMK A01 T01381067  RH  023%=      5-min Rain = 0
KSB1 251432Z 00000KT 14/M08 A3027 RMK A01 T01411078  RH  021%=      5-min Rain = 0
KSB1 251433Z 00000KT 14/M08 A3027 RMK A01 T01431077  RH  021%=      5-min Rain = 0
KSB1 251434Z 00000KT 14/M08 A3027 RMK A01 T01441079  RH  021%=      5-min Rain = 0
KSB1 251435Z 00000KT 15/M08 A3027 RMK A01 T01451084  RH  020%=      5-min Rain = 0
KSB1 251436Z 00000KT 15/M08 A3027 RMK A01 T01481084  RH  019%=      5-min Rain = 0
KSB1 251437Z 00000KT 15/M08 A3027 RMK A01 T01511079  RH  020%=      5-min Rain = 0
KSB1 251438Z 00000KT 15/M08 A3027 RMK A01 T01541078  RH  019%=      5-min Rain = 0
KSB1 251439Z 06000KT 16/M08 A3027 RMK A01 T01551076  RH  020%=      5-min Rain = 0
KSB1 251440Z 06001KT 16/M07 A3027 RMK A01 T01581070  RH  020%=      5-min Rain = 0
KSB1 251441Z 06001KT 16/M07 A3027 RMK A01 T01591067  RH  021%=      5-min Rain = 0
KSB1 251442Z 06002KT 16/M07 A3027 RMK A01 T01591067  RH  021%=      5-min Rain = 0
KSB1 251443Z 07001KT 16/M07 A3027 RMK A01 T01591066  RH  021%=      5-min Rain = 0
KSB1 251444Z 08001KT 16/M07 A3027 RMK A01 T01581071  RH  020%=      5-min Rain = 0
KSB1 251445Z 09002KT 16/M07 A3027 RMK A01 T01571070  RH  020%=      5-min Rain = 0
KSB1 251446Z 09002KT 16/M07 A3027 RMK A01 T01551073  RH  020%=      5-min Rain = 0
KSB1 251447Z 11001KT 15/M07 A3027 RMK A01 T01531073  RH  020%=      5-min Rain = 0
KSB1 251448Z 10002KT 15/M07 A3027 RMK A01 T01521068  RH  021%=      5-min Rain = 0
KSB1 251449Z 12002KT 15/M07 A3028 RMK A01 T01521071  RH  021%=      5-min Rain = 0
KSB1 251450Z 11002KT 15/M07 A3028 RMK A01 T01521071  RH  021%=      5-min Rain = 0
KSB1 251451Z 11002KT 15/M07 A3028 RMK A01 T01531072  RH  021%=      5-min Rain = 0
KSB1 251452Z 11001KT 15/M08 A3028 RMK A01 T01531075  RH  020%=      5-min Rain = 0
KSB1 251453Z 12001KT 15/M07 A3028 RMK A01 T01531071  RH  021%=      5-min Rain = 0
KSB1 251454Z 11002KT 15/M07 A3028 RMK A01 T01541065  RH  022%=      5-min Rain = 0
KSB1 251455Z 10001KT 15/M06 A3028 RMK A01 T01541064  RH  022%=      5-min Rain = 0
KSB1 251456Z 09001KT 16/M07 A3028 RMK A01 T01551069  RH  021%=      5-min Rain = 0
KSB1 251457Z 08000KT 16/M07 A3028 RMK A01 T01551068  RH  021%=      5-min Rain = 0
KSB1 251458Z 05000KT 16/M07 A3028 RMK A01 T01571068  RH  021%=      5-min Rain = 0
KSB1 251459Z 05000KT 16/M07 A3028 RMK A01 T01591070  RH  020%=      5-min Rain = 0
KSB1 251500Z 06001KT 16/M07 A3028 RMK A01 T01621068  RH  020%=      5-min Rain = 0
KSB1 251501Z 05001KT 16/M08 A3028 RMK A01 T01641076  RH  019%=      5-min Rain = 0
KSB1 251502Z 03001KT 16/M08 A3028 RMK A01 T01641077  RH  018%=      5-min Rain = 0
KSB1 251503Z 03001KT 16/M08 A3028 RMK A01 T01641078  RH  018%=      5-min Rain = 0
KSB1 251504Z 04001KT 16/M08 A3028 RMK A01 T01631075  RH  019%=      5-min Rain = 0
KSB1 251505Z 07000KT 16/M07 A3028 RMK A01 T01631074  RH  019%=      5-min Rain = 0
KSB1 251506Z 04000KT 16/M07 A3028 RMK A01 T01641072  RH  019%=      5-min Rain = 0
KSB1 251507Z 05000KT 17/M07 A3028 RMK A01 T01661072  RH  019%=      5-min Rain = 0
KSB1 251508Z 06001KT 17/M07 A3028 RMK A01 T01671074  RH  019%=      5-min Rain = 0
KSB1 251509Z 06001KT 17/M08 A3028 RMK A01 T01671076  RH  018%=      5-min Rain = 0
KSB1 251510Z 08002KT 17/M08 A3028 RMK A01 T01671078  RH  018%=      5-min Rain = 0
KSB1 251511Z 09002KT 17/M08 A3028 RMK A01 T01681077  RH  018%=      5-min Rain = 0
KSB1 251512Z 09003KT 17/M08 A3028 RMK A01 T01681075  RH  018%=      5-min Rain = 0
KSB1 251513Z 08004KT 17/M07 A3028 RMK A01 T01691068  RH  019%=      5-min Rain = 0
KSB1 251514Z 09004KT 17/M07 A3028 RMK A01 T01691069  RH  019%=      5-min Rain = 0
KSB1 251515Z 08006KT 17/M07 A3028 RMK A01 T01691073  RH  018%=      5-min Rain = 0
KSB1 251516Z 07006KT 17/M08 A3028 RMK A01 T01681075  RH  018%=      5-min Rain = 0
KSB1 251517Z 07005KT 17/M07 A3028 RMK A01 T01671074  RH  019%=      5-min Rain = 0
KSB1 251518Z 09004KT 17/M07 A3028 RMK A01 T01661070  RH  019%=      5-min Rain = 0
KSB1 251519Z 08005KT 17/M07 A3028 RMK A01 T01681065  RH  020%=      5-min Rain = 0
KSB1 251520Z 09006KT 17/M07 A3028 RMK A01 T01681066  RH  020%=      5-min Rain = 0
KSB1 251521Z 07006KT 17/M07 A3029 RMK A01 T01691071  RH  019%=      5-min Rain = 0
KSB1 251522Z 08006KT 17/M08 A3029 RMK A01 T01691077  RH  018%=      5-min Rain = 0
KSB1 251523Z 07006KT 17/M08 A3029 RMK A01 T01701080  RH  017%=      5-min Rain = 0
KSB1 251524Z 08005KT 17/M08 A3029 RMK A01 T01681080  RH  018%=      5-min Rain = 0
KSB1 251525Z 09005KT 17/M08 A3029 RMK A01 T01671077  RH  018%=      5-min Rain = 0
KSB1 251526Z 08005KT 17/M08 A3029 RMK A01 T01671076  RH  018%=      5-min Rain = 0
KSB1 251527Z 06004KT 17/M08 A3029 RMK A01 T01681077  RH  018%=      5-min Rain = 0
KSB1 251528Z 08003KT 17/M07 A3029 RMK A01 T01671073  RH  019%=      5-min Rain = 0
KSB1 251529Z 09003KT 17/M08 A3029 RMK A01 T01681076  RH  018%=      5-min Rain = 0
KSB1 251530Z 10003KT 17/M08 A3029 RMK A01 T01691078  RH  018%=      5-min Rain = 0
KSB1 251531Z 08003KT 17/M08 A3029 RMK A01 T01701077  RH  018%=      5-min Rain = 0
KSB1 251532Z 08003KT 17/M07 A3029 RMK A01 T01701072  RH  018%=      5-min Rain = 0
KSB1 251533Z 07003KT 17/M07 A3029 RMK A01 T01711071  RH  018%=      5-min Rain = 0
KSB1 251534Z 06002KT 17/M07 A3029 RMK A01 T01711073  RH  018%=      5-min Rain = 0
KSB1 251535Z 07003KT 17/M07 A3029 RMK A01 T01701074  RH  018%=      5-min Rain = 0
KSB1 251536Z 06003KT 17/M08 A3029 RMK A01 T01701076  RH  018%=      5-min Rain = 0
KSB1 251537Z 07003KT 17/M08 A3029 RMK A01 T01701079  RH  018%=      5-min Rain = 0
KSB1 251538Z 05003KT 17/M08 A3029 RMK A01 T01701077  RH  018%=      5-min Rain = 0
KSB1 251539Z 04003KT 17/M08 A3029 RMK A01 T01701077  RH  018%=      5-min Rain = 0
KSB1 251540Z 05003KT 17/M08 A3029 RMK A01 T01711080  RH  017%=      5-min Rain = 0
KSB1 251541Z 06003KT 17/M08 A3029 RMK A01 T01701082  RH  017%=      5-min Rain = 0
KSB1 251542Z 05003KT 17/M08 A3029 RMK A01 T01701082  RH  017%=      5-min Rain = 0
KSB1 251543Z 05003KT 17/M08 A3029 RMK A01 T01721081  RH  017%=      5-min Rain = 0
KSB1 251544Z 05002KT 17/M08 A3029 RMK A01 T01731080  RH  017%=      5-min Rain = 0
KSB1 251545Z 03003KT 18/M08 A3029 RMK A01 T01751077  RH  017%=      5-min Rain = 0
KSB1 251546Z 03003KT 18/M08 A3029 RMK A01 T01761079  RH  017%=      5-min Rain = 0
KSB1 251547Z 04003KT 18/M08 A3029 RMK A01 T01771082  RH  016%=      5-min Rain = 0
KSB1 251548Z 05002KT 18/M09 A3029 RMK A01 T01781085  RH  016%=      5-min Rain = 0
KSB1 251549Z 04003KT 18/M08 A3029 RMK A01 T01791083  RH  016%=      5-min Rain = 0
KSB1 251550Z 02003KT 18/M08 A3029 RMK A01 T01791084  RH  016%=      5-min Rain = 0
KSB1 251551Z 01002KT 18/M08 A3029 RMK A01 T01801082  RH  016%=      5-min Rain = 0
KSB1 251552Z 05003KT 18/M08 A3029 RMK A01 T01811080  RH  016%=      5-min Rain = 0
KSB1 251553Z 05004KT 18/M08 A3029 RMK A01 T01831081  RH  016%=      5-min Rain = 0
KSB1 251554Z 05003KT 18/M08 A3029 RMK A01 T01831083  RH  016%=      5-min Rain = 0
KSB1 251555Z 06004KT 18/M08 A3029 RMK A01 T01841082  RH  016%=      5-min Rain = 0
KSB1 251556Z 08004KT 19/M08 A303 RMK A01 T01851082  RH  015%=      5-min Rain = 0
KSB1 251557Z 09006KT 19/M08 A303 RMK A01 T01871079  RH  016%=      5-min Rain = 0
KSB1 251558Z 07005KT 19/M08 A303 RMK A01 T01901081  RH  015%=      5-min Rain = 0
KSB1 251559Z 08004KT 19/M09 A303 RMK A01 T01901086  RH  015%=      5-min Rain = 0
KSB1 251600Z 11007KT 19/M08 A303 RMK A01 T01891083  RH  015%=      5-min Rain = 0
KSB1 251601Z 11008KT 19/M08 A303 RMK A01 T01881083  RH  015%=      5-min Rain = 0
KSB1 251602Z 11008KT 19/M09 A303 RMK A01 T01871087  RH  015%=      5-min Rain = 0
KSB1 251603Z 11005KT 19/M09 A303 RMK A01 T01871087  RH  015%=      5-min Rain = 0
KSB1 251604Z 11005KT 19/M09 A303 RMK A01 T01861086  RH  015%=      5-min Rain = 0
KSB1 251605Z 10009KT 19/M08 A303 RMK A01 T01871083  RH  015%=      5-min Rain = 0
KSB1 251606Z 10008KT 19/M09 A303 RMK A01 T01881085  RH  015%=      5-min Rain = 0
KSB1 251607Z 10006KT 19/M09 A303 RMK A01 T01881087  RH  015%=      5-min Rain = 0
KSB1 251608Z 11005G10KT 19/M09 A303 RMK A01 T01871086  RH  015%=      5-min Rain = 0
KSB1 251609Z 10008KT 19/M08 A303 RMK A01 T01881082  RH  015%=      5-min Rain = 0
KSB1 251610Z 10007KT 19/M08 A303 RMK A01 T01911083  RH  015%=      5-min Rain = 0
KSB1 251611Z 11006KT 19/M08 A303 RMK A01 T01911082  RH  015%=      5-min Rain = 0
KSB1 251612Z 11005KT 19/M08 A303 RMK A01 T01911084  RH  015%=      5-min Rain = 0
KSB1 251613Z 13006KT 19/M08 A303 RMK A01 T01921082  RH  015%=      5-min Rain = 0
KSB1 251614Z 13008KT 19/M08 A303 RMK A01 T01941078  RH  015%=      5-min Rain = 0
KSB1 251615Z 13006KT 20/M08 A303 RMK A01 T01951080  RH  015%=      5-min Rain = 0
KSB1 251616Z 14006KT 20/M08 A303 RMK A01 T01961078  RH  015%=      5-min Rain = 0
KSB1 251617Z 11006KT 20/M08 A303 RMK A01 T01971080  RH  015%=      5-min Rain = 0
KSB1 251618Z 12009KT 20/M08 A303 RMK A01 T01961079  RH  015%=      5-min Rain = 0
KSB1 251619Z 12009KT 20/M08 A303 RMK A01 T01971079  RH  015%=      5-min Rain = 0
KSB1 251620Z 12007KT 20/M08 A303 RMK A01 T01961081  RH  015%=      5-min Rain = 0
KSB1 251621Z 12007KT 20/M08 A303 RMK A01 T01971078  RH  015%=      5-min Rain = 0
KSB1 251622Z 12008KT 20/M08 A303 RMK A01 T01991077  RH  015%=      5-min Rain = 0
KSB1 251623Z 11008KT 20/M08 A303 RMK A01 T02001076  RH  015%=      5-min Rain = 0
KSB1 251624Z 11008KT 20/M08 A303 RMK A01 T02001079  RH  014%=      5-min Rain = 0
KSB1 251625Z 10008KT 20/M08 A303 RMK A01 T02001079  RH  014%=      5-min Rain = 0
KSB1 251626Z 11010KT 20/M08 A303 RMK A01 T02001080  RH  014%=      5-min Rain = 0
KSB1 251627Z 11007KT 20/M08 A303 RMK A01 T02001082  RH  014%=      5-min Rain = 0
KSB1 251628Z 12006KT 20/M08 A303 RMK A01 T01991080  RH  014%=      5-min Rain = 0
KSB1 251629Z 14008KT 20/M08 A303 RMK A01 T02001082  RH  014%=      5-min Rain = 0
KSB1 251630Z 13007KT 20/M08 A3029 RMK A01 T01991080  RH  014%=      5-min Rain = 0
KSB1 251631Z 13007KT 20/M08 A3029 RMK A01 T02001083  RH  014%=      5-min Rain = 0
KSB1 251632Z 13006KT 20/M08 A3029 RMK A01 T02001084  RH  014%=      5-min Rain = 0
KSB1 251633Z 13006KT 20/M08 A3029 RMK A01 T02021082  RH  014%=      5-min Rain = 0
KSB1 251634Z 12010KT 21/M08 A3029 RMK A01 T02051080  RH  014%=      5-min Rain = 0
KSB1 251635Z 11007KT 21/M09 A3029 RMK A01 T02051086  RH  013%=      5-min Rain = 0
KSB1 251636Z 13008KT 20/M09 A3029 RMK A01 T02041086  RH  013%=      5-min Rain = 0
KSB1 251637Z 14010G15KT 20/M09 A3029 RMK A01 T02041085  RH  013%=      5-min Rain = 0
KSB1 251638Z 12012KT 21/M09 A3029 RMK A01 T02051086  RH  013%=      5-min Rain = 0
KSB1 251639Z 10011KT 20/M09 A3029 RMK A01 T02041088  RH  013%=      5-min Rain = 0
KSB1 251640Z 11011KT 21/M09 A3029 RMK A01 T02051086  RH  013%=      5-min Rain = 0
KSB1 251641Z 11008KT 21/M09 A3029 RMK A01 T02051089  RH  013%=      5-min Rain = 0
KSB1 251642Z 12010KT 20/M09 A3029 RMK A01 T02031088  RH  013%=      5-min Rain = 0
KSB1 251643Z 14012KT 20/M09 A3029 RMK A01 T02041088  RH  013%=      5-min Rain = 0
KSB1 251644Z 13013KT 21/M09 A3029 RMK A01 T02051089  RH  013%=      5-min Rain = 0
KSB1 251645Z 13012KT 21/M09 A3029 RMK A01 T02061092  RH  013%=      5-min Rain = 0
KSB1 251646Z 13011KT 21/M09 A3029 RMK A01 T02061093  RH  013%=      5-min Rain = 0
KSB1 251647Z 13010KT 21/M09 A303 RMK A01 T02071091  RH  013%=      5-min Rain = 0
KSB1 251648Z 12013KT 21/M09 A3029 RMK A01 T02071092  RH  012%=      5-min Rain = 0
KSB1 251649Z 13011KT 21/M09 A3029 RMK A01 T02071093  RH  012%=      5-min Rain = 0
KSB1 251650Z 13009KT 21/M09 A303 RMK A01 T02071090  RH  013%=      5-min Rain = 0
KSB1 251651Z 13009KT 21/M09 A303 RMK A01 T02091089  RH  013%=      5-min Rain = 0
KSB1 251652Z 13010KT 21/M09 A3029 RMK A01 T02091091  RH  012%=      5-min Rain = 0
KSB1 251653Z 12010KT 21/M09 A3029 RMK A01 T02101088  RH  013%=      5-min Rain = 0
KSB1 251654Z 12008KT 21/M09 A3029 RMK A01 T02101089  RH  013%=      5-min Rain = 0
KSB1 251655Z 11011KT 21/M09 A3029 RMK A01 T02111088  RH  013%=      5-min Rain = 0
KSB1 251656Z 11012KT 21/M09 A3029 RMK A01 T02121090  RH  012%=      5-min Rain = 0
KSB1 251657Z 11012KT 21/M09 A3029 RMK A01 T02121092  RH  012%=      5-min Rain = 0
KSB1 251658Z 12009KT 21/M09 A3029 RMK A01 T02101094  RH  012%=      5-min Rain = 0
KSB1 251659Z 12009KT 21/M09 A3029 RMK A01 T02091092  RH  012%=      5-min Rain = 0
KSB1 251700Z 10012KT 21/M09 A3029 RMK A01 T02101091  RH  012%=      5-min Rain = 0
KSB1 251701Z 09011KT 21/M09 A3029 RMK A01 T02101093  RH  012%=      5-min Rain = 0
KSB1 251702Z 09009KT 21/M09 A3029 RMK A01 T02091092  RH  012%=      5-min Rain = 0
KSB1 251703Z 11011KT 21/M09 A3029 RMK A01 T02091090  RH  013%=      5-min Rain = 0
KSB1 251704Z 11013KT 21/M09 A3029 RMK A01 T02111091  RH  012%=      5-min Rain = 0
KSB1 251705Z 12012KT 21/M10 A3029 RMK A01 T02081095  RH  012%=      5-min Rain = 0
KSB1 251706Z 12010KT 21/M09 A3029 RMK A01 T02071094  RH  012%=      5-min Rain = 0
KSB1 251707Z 11012KT 21/M09 A3029 RMK A01 T02081093  RH  012%=      5-min Rain = 0
KSB1 251708Z 10007G12KT 21/M10 A3029 RMK A01 T02071095  RH  012%=      5-min Rain = 0
KSB1 251709Z 11008G13KT 21/M09 A3029 RMK A01 T02071093  RH  012%=      5-min Rain = 0
KSB1 251710Z 11009KT 21/M09 A3029 RMK A01 T02061093  RH  012%=      5-min Rain = 0
KSB1 251711Z 12010KT 21/M09 A3029 RMK A01 T02091092  RH  012%=      5-min Rain = 0
KSB1 251712Z 12011KT 21/M10 A3029 RMK A01 T02101096  RH  012%=      5-min Rain = 0
KSB1 251713Z 12009KT 21/M10 A303 RMK A01 T02091095  RH  012%=      5-min Rain = 0
KSB1 251714Z 10010G15KT 21/M10 A303 RMK A01 T02091095  RH  012%=      5-min Rain = 0
KSB1 251715Z 10011KT 21/M09 A303 RMK A01 T02091093  RH  012%=      5-min Rain = 0
KSB1 251716Z 11012KT 21/M09 A303 RMK A01 T02101093  RH  012%=      5-min Rain = 0
KSB1 251717Z 12011KT 21/M09 A303 RMK A01 T02091092  RH  012%=      5-min Rain = 0
KSB1 251718Z 13010KT 21/M09 A303 RMK A01 T02101092  RH  012%=      5-min Rain = 0
KSB1 251719Z 13012KT 21/M09 A303 RMK A01 T02101092  RH  012%=      5-min Rain = 0
KSB1 251720Z 13013KT 21/M09 A3029 RMK A01 T02111091  RH  012%=      5-min Rain = 0
KSB1 251721Z 10012KT 21/M09 A3029 RMK A01 T02121090  RH  012%=      5-min Rain = 0
KSB1 251722Z 11008KT 21/M09 A303 RMK A01 T02121092  RH  012%=      5-min Rain = 0
KSB1 251723Z 13010KT 21/M09 A3029 RMK A01 T02121092  RH  012%=      5-min Rain = 0
KSB1 251724Z 13009KT 21/M09 A303 RMK A01 T02131089  RH  012%=      5-min Rain = 0
KSB1 251725Z 14010KT 22/M09 A3029 RMK A01 T02151091  RH  012%=      5-min Rain = 0
KSB1 251726Z 13009KT 21/M09 A3029 RMK A01 T02141094  RH  012%=      5-min Rain = 0
KSB1 251727Z 11013KT 21/M09 A3029 RMK A01 T02141091  RH  012%=      5-min Rain = 0
KSB1 251728Z 10010KT 21/M09 A3029 RMK A01 T02131093  RH  012%=      5-min Rain = 0
KSB1 251729Z 13010KT 21/M09 A3029 RMK A01 T02111094  RH  012%=      5-min Rain = 0
KSB1 251730Z 13010KT 21/M10 A3029 RMK A01 T02101096  RH  012%=      5-min Rain = 0
KSB1 251731Z 12011KT 21/M09 A3029 RMK A01 T02111094  RH  012%=      5-min Rain = 0
KSB1 251732Z 11012KT 21/M10 A3029 RMK A01 T02101095  RH  012%=      5-min Rain = 0
KSB1 251733Z 09010KT 21/M09 A3029 RMK A01 T02091094  RH  012%=      5-min Rain = 0
KSB1 251734Z 10014KT 21/M09 A3029 RMK A01 T02091093  RH  012%=      5-min Rain = 0
KSB1 251735Z 11009KT 21/M09 A3029 RMK A01 T02111094  RH  012%=      5-min Rain = 0
KSB1 251736Z 11005KT 21/M10 A303 RMK A01 T02101096  RH  012%=      5-min Rain = 0
KSB1 251737Z 10009KT 21/M09 A3029 RMK A01 T02111093  RH  012%=      5-min Rain = 0
KSB1 251738Z 09009KT 21/M09 A3029 RMK A01 T02121092  RH  012%=      5-min Rain = 0
KSB1 251739Z 09011KT 21/M09 A3029 RMK A01 T02131091  RH  012%=      5-min Rain = 0
KSB1 251740Z 09011KT 21/M09 A3029 RMK A01 T02141092  RH  012%=      5-min Rain = 0
KSB1 251741Z 09007KT 21/M09 A3029 RMK A01 T02141093  RH  012%=      5-min Rain = 0
KSB1 251742Z 09008KT 21/M09 A3029 RMK A01 T02141091  RH  012%=      5-min Rain = 0
KSB1 251743Z 10010G15KT 21/M09 A3029 RMK A01 T02141091  RH  012%=      5-min Rain = 0
KSB1 251744Z 09011KT 21/M09 A3029 RMK A01 T02131091  RH  012%=      5-min Rain = 0
KSB1 251745Z 10011KT 21/M09 A3029 RMK A01 T02121090  RH  012%=      5-min Rain = 0
KSB1 251746Z 12009G14KT 21/M09 A3029 RMK A01 T02141087  RH  012%=      5-min Rain = 0
KSB1 251747Z 12011KT 22/M09 A3029 RMK A01 T02161089  RH  012%=      5-min Rain = 0
KSB1 251748Z 12009KT 22/M09 A3029 RMK A01 T02151092  RH  012%=      5-min Rain = 0
KSB1 251749Z 13010KT 21/M09 A3029 RMK A01 T02131092  RH  012%=      5-min Rain = 0
KSB1 251750Z 13008KT 21/M09 A3029 RMK A01 T02131091  RH  012%=      5-min Rain = 0
KSB1 251751Z 10009KT 21/M09 A3029 RMK A01 T02131090  RH  012%=      5-min Rain = 0
KSB1 251752Z 11012KT 21/M09 A3029 RMK A01 T02141087  RH  012%=      5-min Rain = 0
KSB1 251753Z 11009KT 21/M09 A3029 RMK A01 T02141090  RH  012%=      5-min Rain = 0
KSB1 251754Z 10010KT 21/M09 A3029 RMK A01 T02141087  RH  012%=      5-min Rain = 0
KSB1 251755Z 09012KT 22/M09 A3029 RMK A01 T02161089  RH  012%=      5-min Rain = 0
KSB1 251756Z 09011KT 22/M09 A3029 RMK A01 T02171090  RH  012%=      5-min Rain = 0
KSB1 251757Z 10011KT 22/M09 A3029 RMK A01 T02161091  RH  012%=      5-min Rain = 0
KSB1 251758Z 09009KT 22/M09 A3029 RMK A01 T02161092  RH  012%=      5-min Rain = 0
KSB1 251759Z 09009KT 22/M09 A3029 RMK A01 T02161092  RH  012%=      5-min Rain = 0
KSB1 251800Z 09010KT 22/M09 A3029 RMK A01 T02151093  RH  012%=      5-min Rain = 0
KSB1 251801Z 10007G13KT 21/M09 A3029 RMK A01 T02131093  RH  012%=      5-min Rain = 0
KSB1 251802Z 09012KT 21/M09 A3029 RMK A01 T02131090  RH  012%=      5-min Rain = 0
KSB1 251803Z 08007KT 22/M09 A3029 RMK A01 T02151090  RH  012%=      5-min Rain = 0
KSB1 251804Z 07007KT 21/M09 A3029 RMK A01 T02141092  RH  012%=      5-min Rain = 0
KSB1 251805Z 11009KT 21/M09 A3029 RMK A01 T02141089  RH  012%=      5-min Rain = 0
KSB1 251806Z 11009KT 22/M09 A3029 RMK A01 T02171087  RH  012%=      5-min Rain = 0
KSB1 251807Z 12009KT 22/M09 A3029 RMK A01 T02171089  RH  012%=      5-min Rain = 0
KSB1 251808Z 12011KT 22/M09 A3029 RMK A01 T02181089  RH  012%=      5-min Rain = 0
KSB1 251809Z 12007KT 22/M09 A3029 RMK A01 T02181092  RH  012%=      5-min Rain = 0
KSB1 251810Z 11008KT 22/M09 A3029 RMK A01 T02181090  RH  012%=      5-min Rain = 0
KSB1 251811Z 13006KT 22/M09 A3029 RMK A01 T02191091  RH  012%=      5-min Rain = 0
KSB1 251812Z 15006KT 22/M09 A3029 RMK A01 T02191090  RH  012%=      5-min Rain = 0
KSB1 251813Z 14006KT 22/M09 A3029 RMK A01 T02201090  RH  012%=      5-min Rain = 0
KSB1 251814Z 13010KT 22/M09 A3028 RMK A01 T02211086  RH  012%=      5-min Rain = 0
KSB1 251815Z 13010G17KT 22/M09 A3029 RMK A01 T02221088  RH  012%=      5-min Rain = 0
KSB1 251816Z 14007KT 22/M09 A3029 RMK A01 T02201089  RH  012%=      5-min Rain = 0
KSB1 251817Z 13007KT 22/M09 A3029 RMK A01 T02191090  RH  012%=      5-min Rain = 0
KSB1 251818Z 11010KT 22/M09 A3028 RMK A01 T02181087  RH  012%=      5-min Rain = 0
KSB1 251819Z 10009KT 22/M09 A3028 RMK A01 T02191088  RH  012%=      5-min Rain = 0
KSB1 251820Z 11009KT 22/M09 A3028 RMK A01 T02201085  RH  012%=      5-min Rain = 0
KSB1 251821Z 11006KT 22/M09 A3029 RMK A01 T02231087  RH  012%=      5-min Rain = 0
KSB1 251822Z 08008KT 22/M09 A3028 RMK A01 T02221087  RH  012%=      5-min Rain = 0
KSB1 251823Z 10009KT 22/M08 A3028 RMK A01 T02221084  RH  012%=      5-min Rain = 0
KSB1 251824Z 10010KT 23/M08 A3028 RMK A01 T02251084  RH  012%=      5-min Rain = 0
KSB1 251825Z 10012KT 22/M09 A3028 RMK A01 T02241088  RH  012%=      5-min Rain = 0
KSB1 251826Z 10011KT 22/M09 A3028 RMK A01 T02201088  RH  012%=      5-min Rain = 0
KSB1 251827Z 11009KT 22/M09 A3028 RMK A01 T02181087  RH  012%=      5-min Rain = 0
KSB1 251828Z 11010KT 22/M08 A3028 RMK A01 T02211081  RH  013%=      5-min Rain = 0
KSB1 251829Z 13010KT 22/M09 A3028 RMK A01 T02221087  RH  012%=      5-min Rain = 0
KSB1 251830Z 12010KT 22/M09 A3028 RMK A01 T02191088  RH  012%=      5-min Rain = 0
KSB1 251831Z 15008KT 22/M09 A3028 RMK A01 T02211086  RH  012%=      5-min Rain = 0
KSB1 251832Z 12008KT 22/M09 A3028 RMK A01 T02221087  RH  012%=      5-min Rain = 0
KSB1 251833Z 14008KT 22/M09 A3028 RMK A01 T02201088  RH  012%=      5-min Rain = 0
KSB1 251834Z 11010G17KT 22/M09 A3028 RMK A01 T02201086  RH  012%=      5-min Rain = 0
KSB1 251835Z 11013KT 22/M09 A3028 RMK A01 T02201086  RH  012%=      5-min Rain = 0
KSB1 251836Z 11008KT 22/M09 A3028 RMK A01 T02211086  RH  012%=      5-min Rain = 0
KSB1 251837Z 09012KT 22/M09 A3028 RMK A01 T02211085  RH  012%=      5-min Rain = 0
KSB1 251838Z 10010KT 22/M09 A3028 RMK A01 T02221085  RH  012%=      5-min Rain = 0
KSB1 251839Z 09010KT 22/M08 A3028 RMK A01 T02231084  RH  012%=      5-min Rain = 0
KSB1 251840Z 09010KT 23/M08 A3028 RMK A01 T02251084  RH  012%=      5-min Rain = 0
KSB1 251841Z 11009KT 23/M08 A3027 RMK A01 T02251084  RH  012%=      5-min Rain = 0
KSB1 251842Z 11008KT 23/M08 A3027 RMK A01 T02251083  RH  012%=      5-min Rain = 0
KSB1 251843Z 11009KT 23/M08 A3027 RMK A01 T02291081  RH  012%=      5-min Rain = 0
KSB1 251844Z 09008KT 23/M08 A3027 RMK A01 T02281084  RH  012%=      5-min Rain = 0
KSB1 251845Z 14010KT 23/M08 A3028 RMK A01 T02281084  RH  012%=      5-min Rain = 0
KSB1 251846Z 15010KT 23/M09 A3028 RMK A01 T02281086  RH  012%=      5-min Rain = 0
KSB1 251847Z 14009KT 23/M09 A3027 RMK A01 T02281087  RH  011%=      5-min Rain = 0
KSB1 251848Z 14010KT 23/M09 A3027 RMK A01 T02271089  RH  011%=      5-min Rain = 0
KSB1 251849Z 14009KT 23/M09 A3027 RMK A01 T02251088  RH  012%=      5-min Rain = 0
KSB1 251850Z 11011KT 23/M08 A3027 RMK A01 T02281081  RH  012%=      5-min Rain = 0
KSB1 251851Z 11007KT 23/M08 A3027 RMK A01 T02281083  RH  012%=      5-min Rain = 0
KSB1 251852Z 14010KT 23/M08 A3027 RMK A01 T02251084  RH  012%=      5-min Rain = 0
KSB1 251853Z 14011KT 22/M09 A3027 RMK A01 T02241085  RH  012%=      5-min Rain = 0
KSB1 251854Z 14008G13KT 23/M08 A3027 RMK A01 T02251084  RH  012%=      5-min Rain = 0
KSB1 251855Z 15011KT 23/M09 A3027 RMK A01 T02261085  RH  012%=      5-min Rain = 0
KSB1 251856Z 13011G16KT 23/M08 A3027 RMK A01 T02271082  RH  012%=      5-min Rain = 0
KSB1 251857Z 12014KT 23/M08 A3027 RMK A01 T02291078  RH  012%=      5-min Rain = 0
KSB1 251858Z 11013KT 23/M08 A3027 RMK A01 T02301080  RH  012%=      5-min Rain = 0
KSB1 251859Z 12011KT 23/M08 A3027 RMK A01 T02271082  RH  012%=      5-min Rain = 0
KSB1 251900Z 13011KT 22/M08 A3027 RMK A01 T02231084  RH  012%=      5-min Rain = 0
KSB1 251901Z 12011KT 23/M08 A3027 RMK A01 T02251079  RH  012%=      5-min Rain = 0
KSB1 251902Z 12011KT 23/M08 A3027 RMK A01 T02281080  RH  012%=      5-min Rain = 0
KSB1 251903Z 14012KT 23/M08 A3027 RMK A01 T02271082  RH  012%=      5-min Rain = 0
KSB1 251904Z 15006KT 23/M08 A3027 RMK A01 T02251083  RH  012%=      5-min Rain = 0
KSB1 251905Z 13009KT 22/M08 A3027 RMK A01 T02241083  RH  012%=      5-min Rain = 0
KSB1 251906Z 11011KT 23/M08 A3027 RMK A01 T02291078  RH  012%=      5-min Rain = 0
KSB1 251907Z 12012KT 23/M08 A3027 RMK A01 T02301082  RH  012%=      5-min Rain = 0
KSB1 251908Z 13013KT 23/M08 A3027 RMK A01 T02271083  RH  012%=      5-min Rain = 0
KSB1 251909Z 11011KT 23/M08 A3027 RMK A01 T02271084  RH  012%=      5-min Rain = 0
KSB1 251910Z 10011KT 23/M09 A3027 RMK A01 T02251085  RH  012%=      5-min Rain = 0
KSB1 251911Z 10009KT 23/M09 A3027 RMK A01 T02251085  RH  012%=      5-min Rain = 0
KSB1 251912Z 09008KT 23/M08 A3027 RMK A01 T02261084  RH  012%=      5-min Rain = 0
KSB1 251913Z 06006KT 23/M09 A3027 RMK A01 T02261086  RH  012%=      5-min Rain = 0
KSB1 251914Z 03004KT 22/M09 A3026 RMK A01 T02221087  RH  012%=      5-min Rain = 0
KSB1 251915Z 13006KT 22/M08 A3027 RMK A01 T02211084  RH  012%=      5-min Rain = 0
KSB1 251916Z 15012KT 22/M08 A3027 RMK A01 T02241080  RH  012%=      5-min Rain = 0
KSB1 251917Z 14013KT 23/M08 A3026 RMK A01 T02281079  RH  012%=      5-min Rain = 0
KSB1 251918Z 14014KT 23/M08 A3026 RMK A01 T02301080  RH  012%=      5-min Rain = 0
KSB1 251919Z 15011KT 23/M08 A3027 RMK A01 T02311082  RH  012%=      5-min Rain = 0
KSB1 251920Z 15009KT 23/M08 A3027 RMK A01 T02301084  RH  012%=      5-min Rain = 0
KSB1 251921Z 16009KT 23/M09 A3027 RMK A01 T02261086  RH  012%=      5-min Rain = 0
KSB1 251922Z 17009KT 23/M09 A3026 RMK A01 T02261087  RH  012%=      5-min Rain = 0
KSB1 251923Z 16007KT 23/M09 A3026 RMK A01 T02271085  RH  012%=      5-min Rain = 0
KSB1 251924Z 14009KT 23/M08 A3026 RMK A01 T02271083  RH  012%=      5-min Rain = 0
KSB1 251925Z 14012KT 23/M08 A3026 RMK A01 T02281082  RH  012%=      5-min Rain = 0
KSB1 251926Z 13010KT 23/M08 A3026 RMK A01 T02291081  RH  012%=      5-min Rain = 0
KSB1 251927Z 13009KT 23/M08 A3026 RMK A01 T02311083  RH  012%=      5-min Rain = 0
KSB1 251928Z 15006KT 23/M08 A3026 RMK A01 T02301083  RH  012%=      5-min Rain = 0
KSB1 251929Z 14006KT 23/M09 A3026 RMK A01 T02281086  RH  012%=      5-min Rain = 0
KSB1 251930Z 10008KT 23/M09 A3026 RMK A01 T02261085  RH  012%=      5-min Rain = 0
KSB1 251931Z 10005KT 23/M08 A3026 RMK A01 T02271081  RH  012%=      5-min Rain = 0
KSB1 251932Z 13006KT 23/M08 A3026 RMK A01 T02311080  RH  012%=      5-min Rain = 0
KSB1 251933Z 14008KT 23/M08 A3026 RMK A01 T02331079  RH  012%=      5-min Rain = 0
KSB1 251934Z 13008KT 23/M08 A3026 RMK A01 T02341081  RH  012%=      5-min Rain = 0
KSB1 251935Z 12006KT 23/M08 A3026 RMK A01 T02331081  RH  012%=      5-min Rain = 0
KSB1 251936Z 13010G15KT 23/M08 A3026 RMK A01 T02331080  RH  012%=      5-min Rain = 0
KSB1 251937Z 12014KT 24/M08 A3026 RMK A01 T02351077  RH  012%=      5-min Rain = 0
KSB1 251938Z 11011KT 24/M08 A3025 RMK A01 T02371081  RH  011%=      5-min Rain = 0
KSB1 251939Z 12013KT 23/M08 A3025 RMK A01 T02331084  RH  011%=      5-min Rain = 0
KSB1 251940Z 13013KT 23/M08 A3025 RMK A01 T02291084  RH  012%=      5-min Rain = 0
KSB1 251941Z 13011KT 23/M08 A3026 RMK A01 T02301083  RH  012%=      5-min Rain = 0
KSB1 251942Z 12010KT 23/M08 A3025 RMK A01 T02281084  RH  012%=      5-min Rain = 0
KSB1 251943Z 14009KT 23/M08 A3026 RMK A01 T02291082  RH  012%=      5-min Rain = 0
KSB1 251944Z 10007KT 23/M08 A3026 RMK A01 T02311082  RH  012%=      5-min Rain = 0
KSB1 251945Z 10006KT 23/M08 A3025 RMK A01 T02311084  RH  012%=      5-min Rain = 0
KSB1 251946Z 10005KT 23/M09 A3025 RMK A01 T02281086  RH  012%=      5-min Rain = 0
KSB1 251947Z 09005KT 23/M09 A3025 RMK A01 T02261087  RH  012%=      5-min Rain = 0
KSB1 251948Z 11004KT 23/M08 A3025 RMK A01 T02251084  RH  012%=      5-min Rain = 0
KSB1 251949Z 07005KT 23/M09 A3025 RMK A01 T02271085  RH  012%=      5-min Rain = 0
KSB1 251950Z 07006KT 23/M08 A3025 RMK A01 T02281084  RH  012%=      5-min Rain = 0
KSB1 251951Z 07006KT 23/M09 A3025 RMK A01 T02291085  RH  012%=      5-min Rain = 0
KSB1 251952Z 12006KT 23/M08 A3025 RMK A01 T02301084  RH  012%=      5-min Rain = 0
KSB1 251953Z 12005KT 23/M09 A3025 RMK A01 T02291085  RH  012%=      5-min Rain = 0
KSB1 251954Z 12007KT 23/M08 A3025 RMK A01 T02301084  RH  012%=      5-min Rain = 0
KSB1 251955Z 14005KT 23/M08 A3025 RMK A01 T02311083  RH  012%=      5-min Rain = 0
KSB1 251956Z 10009G14KT 23/M08 A3025 RMK A01 T02311083  RH  012%=      5-min Rain = 0
KSB1 251957Z 13011KT 23/M08 A3025 RMK A01 T02331080  RH  012%=      5-min Rain = 0
KSB1 251958Z 13011KT 23/M08 A3025 RMK A01 T02341082  RH  012%=      5-min Rain = 0
KSB1 251959Z 13010KT 23/M08 A3025 RMK A01 T02341083  RH  011%=      5-min Rain = 0
KSB1 252000Z 14009KT 23/M08 A3025 RMK A01 T02341083  RH  011%=      5-min Rain = 0
KSB1 252001Z 14010KT 23/M08 A3025 RMK A01 T02341084  RH  011%=      5-min Rain = 0
KSB1 252002Z 13006KT 23/M09 A3025 RMK A01 T02321088  RH  011%=      5-min Rain = 0
KSB1 252003Z 12007G12KT 23/M09 A3025 RMK A01 T02301087  RH  011%=      5-min Rain = 0
KSB1 252004Z 10009KT 23/M09 A3025 RMK A01 T02301086  RH  011%=      5-min Rain = 0
KSB1 252005Z 12008KT 23/M09 A3025 RMK A01 T02311087  RH  011%=      5-min Rain = 0
KSB1 252006Z 14010KT 23/M09 A3025 RMK A01 T02311086  RH  011%=      5-min Rain = 0
KSB1 252007Z 16007KT 23/M09 A3025 RMK A01 T02321087  RH  011%=      5-min Rain = 0
KSB1 252008Z 14007KT 23/M09 A3025 RMK A01 T02331086  RH  011%=      5-min Rain = 0
KSB1 252009Z 16006KT 23/M09 A3025 RMK A01 T02331088  RH  011%=      5-min Rain = 0
KSB1 252010Z 18006KT 23/M09 A3024 RMK A01 T02321088  RH  011%=      5-min Rain = 0
KSB1 252011Z 21005KT 23/M09 A3024 RMK A01 T02341087  RH  011%=      5-min Rain = 0
KSB1 252012Z 18004KT 23/M09 A3024 RMK A01 T02341086  RH  011%=      5-min Rain = 0
KSB1 252013Z 11007KT 24/M09 A3024 RMK A01 T02361085  RH  011%=      5-min Rain = 0
KSB1 252014Z 10008KT 24/M09 A3024 RMK A01 T02361088  RH  011%=      5-min Rain = 0
KSB1 252015Z 06008KT 23/M09 A3024 RMK A01 T02341089  RH  011%=      5-min Rain = 0
KSB1 252016Z 07005KT 23/M09 A3024 RMK A01 T02291090  RH  011%=      5-min Rain = 0
KSB1 252017Z 11007KT 23/M09 A3024 RMK A01 T02301087  RH  011%=      5-min Rain = 0
KSB1 252018Z 11005KT 23/M09 A3024 RMK A01 T02311088  RH  011%=      5-min Rain = 0
KSB1 252019Z 12004KT 23/M09 A3024 RMK A01 T02301089  RH  011%=      5-min Rain = 0
KSB1 252020Z 10010KT 23/M09 A3024 RMK A01 T02291088  RH  011%=      5-min Rain = 0
KSB1 252021Z 10011KT 23/M08 A3024 RMK A01 T02321084  RH  011%=      5-min Rain = 0
KSB1 252022Z 10006KT 23/M09 A3024 RMK A01 T02331085  RH  011%=      5-min Rain = 0
KSB1 252023Z 10004KT 23/M09 A3024 RMK A01 T02321086  RH  011%=      5-min Rain = 0
KSB1 252024Z 08005KT 23/M09 A3024 RMK A01 T02311086  RH  011%=      5-min Rain = 0
KSB1 252025Z 06003KT 23/M09 A3024 RMK A01 T02291087  RH  011%=      5-min Rain = 0
KSB1 252026Z 08005KT 23/M08 A3024 RMK A01 T02301083  RH  012%=      5-min Rain = 0
KSB1 252027Z 08006KT 23/M09 A3024 RMK A01 T02331085  RH  011%=      5-min Rain = 0
KSB1 252028Z 13007KT 23/M08 A3024 RMK A01 T02341083  RH  011%=      5-min Rain = 0
KSB1 252029Z 15009KT 24/M08 A3023 RMK A01 T02381079  RH  011%=      5-min Rain = 0
KSB1 252030Z 14009KT 24/M08 A3023 RMK A01 T02421078  RH  011%=      5-min Rain = 0
KSB1 252031Z 16008G13KT 24/M08 A3023 RMK A01 T02431082  RH  011%=      5-min Rain = 0
KSB1 252032Z 15006KT 24/M08 A3023 RMK A01 T02381084  RH  011%=      5-min Rain = 0
KSB1 252033Z 14010KT 24/M08 A3023 RMK A01 T02401080  RH  011%=      5-min Rain = 0
KSB1 252034Z 15010KT 24/M08 A3023 RMK A01 T02411083  RH  011%=      5-min Rain = 0
KSB1 252035Z 15008KT 24/M08 A3023 RMK A01 T02411084  RH  011%=      5-min Rain = 0
KSB1 252036Z 16010KT 24/M08 A3023 RMK A01 T02421082  RH  011%=      5-min Rain = 0
KSB1 252037Z 15007KT 24/M08 A3023 RMK A01 T02421084  RH  011%=      5-min Rain = 0
KSB1 252038Z 16003KT 24/M09 A3023 RMK A01 T02401087  RH  011%=      5-min Rain = 0
KSB1 252039Z 19005KT 24/M09 A3023 RMK A01 T02391086  RH  011%=      5-min Rain = 0
KSB1 252040Z 11013G20KT 24/M08 A3022 RMK A01 T02391084  RH  011%=      5-min Rain = 0
KSB1 252041Z 07011KT 24/M08 A3023 RMK A01 T02431080  RH  011%=      5-min Rain = 0
KSB1 252042Z 07008KT 24/M09 A3023 RMK A01 T02431085  RH  011%=      5-min Rain = 0
KSB1 252043Z 08007KT 24/M09 A3023 RMK A01 T02411085  RH  011%=      5-min Rain = 0
KSB1 252044Z 12010KT 24/M09 A3023 RMK A01 T02391085  RH  011%=      5-min Rain = 0
KSB1 252045Z 12010KT 24/M09 A3023 RMK A01 T02391085  RH  011%=      5-min Rain = 0
KSB1 252046Z 12009KT 24/M08 A3023 RMK A01 T02381083  RH  011%=      5-min Rain = 0
KSB1 252047Z 12008KT 24/M08 A3023 RMK A01 T02371084  RH  011%=      5-min Rain = 0
KSB1 252048Z 12006KT 24/M08 A3023 RMK A01 T02371083  RH  011%=      5-min Rain = 0
KSB1 252049Z 15006KT 24/M08 A3023 RMK A01 T02401081  RH  011%=      5-min Rain = 0
KSB1 252050Z 15005KT 24/M08 A3023 RMK A01 T02411080  RH  011%=      5-min Rain = 0
KSB1 252051Z 12006KT 24/M08 A3023 RMK A01 T02431081  RH  011%=      5-min Rain = 0
KSB1 252052Z 12005KT 24/M08 A3023 RMK A01 T02431083  RH  011%=      5-min Rain = 0
KSB1 252053Z 13008KT 24/M08 A3023 RMK A01 T02391084  RH  011%=      5-min Rain = 0
KSB1 252054Z 10006KT 24/M08 A3023 RMK A01 T02411082  RH  011%=      5-min Rain = 0
KSB1 252055Z 09006KT 24/M08 A3022 RMK A01 T02421083  RH  011%=      5-min Rain = 0
KSB1 252056Z 12009KT 24/M08 A3022 RMK A01 T02441081  RH  011%=      5-min Rain = 0
KSB1 252057Z 13008KT 25/M08 A3022 RMK A01 T02461079  RH  011%=      5-min Rain = 0
KSB1 252058Z 12006G11KT 25/M08 A3022 RMK A01 T02481080  RH  011%=      5-min Rain = 0
KSB1 252059Z 14011KT 24/M08 A3022 RMK A01 T02441084  RH  011%=      5-min Rain = 0
KSB1 252100Z 16008KT 24/M08 A3022 RMK A01 T02411084  RH  011%=      5-min Rain = 0
KSB1 252101Z 16010KT 24/M09 A3022 RMK A01 T02391085  RH  011%=      5-min Rain = 0
KSB1 252102Z 14009KT 24/M09 A3022 RMK A01 T02361085  RH  011%=      5-min Rain = 0
KSB1 252103Z 14007KT 24/M09 A3022 RMK A01 T02351085  RH  011%=      5-min Rain = 0
KSB1 252104Z 13007KT 23/M09 A3022 RMK A01 T02331085  RH  011%=      5-min Rain = 0
KSB1 252105Z 10005KT 23/M09 A3022 RMK A01 T02321085  RH  011%=      5-min Rain = 0
KSB1 252106Z 11004KT 23/M08 A3022 RMK A01 T02311084  RH  011%=      5-min Rain = 0
KSB1 252107Z 14004KT 23/M08 A3022 RMK A01 T02331084  RH  011%=      5-min Rain = 0
KSB1 252108Z 12009KT 24/M08 A3022 RMK A01 T02361082  RH  011%=      5-min Rain = 0
KSB1 252109Z 11010KT 24/M08 A3022 RMK A01 T02391081  RH  011%=      5-min Rain = 0
KSB1 252110Z 10011KT 24/M08 A3022 RMK A01 T02391083  RH  011%=      5-min Rain = 0
KSB1 252111Z 10009KT 24/M08 A3022 RMK A01 T02391083  RH  011%=      5-min Rain = 0
KSB1 252112Z 10008KT 24/M08 A3022 RMK A01 T02401083  RH  011%=      5-min Rain = 0
KSB1 252113Z 13005KT 24/M09 A3022 RMK A01 T02381086  RH  011%=      5-min Rain = 0
KSB1 252114Z 16004KT 24/M09 A3022 RMK A01 T02351088  RH  011%=      5-min Rain = 0
KSB1 252115Z 15004KT 23/M09 A3022 RMK A01 T02341087  RH  011%=      5-min Rain = 0
KSB1 252116Z 17004KT 24/M09 A3022 RMK A01 T02351085  RH  011%=      5-min Rain = 0
KSB1 252117Z 14006KT 24/M08 A3022 RMK A01 T02391083  RH  011%=      5-min Rain = 0
KSB1 252118Z 11008KT 24/M08 A3021 RMK A01 T02411084  RH  011%=      5-min Rain = 0
KSB1 252119Z 09001KT 24/M09 A3022 RMK A01 T02381088  RH  011%=      5-min Rain = 0
KSB1 252120Z 08003KT 24/M09 A3021 RMK A01 T02361086  RH  011%=      5-min Rain = 0
KSB1 252121Z 09004KT 24/M08 A3021 RMK A01 T02371083  RH  011%=      5-min Rain = 0
KSB1 252122Z 12009KT 24/M08 A3021 RMK A01 T02391080  RH  011%=      5-min Rain = 0
KSB1 252123Z 12008KT 24/M08 A3021 RMK A01 T02431081  RH  011%=      5-min Rain = 0
KSB1 252124Z 13010KT 24/M08 A3021 RMK A01 T02441081  RH  011%=      5-min Rain = 0
KSB1 252125Z 13006KT 24/M08 A3021 RMK A01 T02441083  RH  011%=      5-min Rain = 0
KSB1 252126Z 12011KT 24/M08 A3021 RMK A01 T02421083  RH  011%=      5-min Rain = 0
KSB1 252127Z 11008KT 24/M08 A3021 RMK A01 T02391084  RH  011%=      5-min Rain = 0
KSB1 252128Z 12007KT 24/M08 A3021 RMK A01 T02401080  RH  011%=      5-min Rain = 0
KSB1 252129Z 11005KT 24/M08 A3021 RMK A01 T02431080  RH  011%=      5-min Rain = 0
KSB1 252130Z 10007KT 25/M08 A3021 RMK A01 T02451080  RH  011%=      5-min Rain = 0
KSB1 252131Z 06007KT 25/M08 A3021 RMK A01 T02451082  RH  011%=      5-min Rain = 0
KSB1 252132Z 06006KT 24/M08 A3021 RMK A01 T02411084  RH  011%=      5-min Rain = 0
KSB1 252133Z 09006KT 24/M08 A3021 RMK A01 T02401083  RH  011%=      5-min Rain = 0
KSB1 252134Z 08004KT 24/M08 A3021 RMK A01 T02391084  RH  011%=      5-min Rain = 0
KSB1 252135Z 06002KT 24/M09 A3021 RMK A01 T02381085  RH  011%=      5-min Rain = 0
KSB1 252136Z 33003KT 24/M08 A3021 RMK A01 T02371084  RH  011%=      5-min Rain = 0
KSB1 252137Z 33003KT 24/M08 A3021 RMK A01 T02371084  RH  011%=      5-min Rain = 0
KSB1 252138Z 34003KT 24/M08 A3021 RMK A01 T02371082  RH  011%=      5-min Rain = 0
KSB1 252139Z 34003KT 24/M08 A3021 RMK A01 T02381082  RH  011%=      5-min Rain = 0
KSB1 252140Z 01002KT 24/M08 A3021 RMK A01 T02401083  RH  011%=      5-min Rain = 0
KSB1 252141Z 05005KT 24/M08 A3021 RMK A01 T02411081  RH  011%=      5-min Rain = 0
KSB1 252142Z 03004KT 24/M08 A3021 RMK A01 T02411082  RH  011%=      5-min Rain = 0
KSB1 252143Z 07002KT 24/M08 A3021 RMK A01 T02411084  RH  011%=      5-min Rain = 0
KSB1 252144Z 08002KT 24/M08 A3021 RMK A01 T02411084  RH  011%=      5-min Rain = 0
KSB1 252145Z 06001KT 24/M08 A3021 RMK A01 T02411083  RH  011%=      5-min Rain = 0
KSB1 252146Z 16001KT 24/M08 A3021 RMK A01 T02421082  RH  011%=      5-min Rain = 0
KSB1 252147Z 07008G13KT 25/M08 A302 RMK A01 T02461078  RH  011%=      5-min Rain = 0
KSB1 252148Z 11010KT 25/M08 A3021 RMK A01 T02501078  RH  011%=      5-min Rain = 0
KSB1 252149Z 11006KT 25/M08 A3021 RMK A01 T02461084  RH  010%=      5-min Rain = 0
KSB1 252150Z 08006KT 24/M08 A3021 RMK A01 T02441084  RH  011%=      5-min Rain = 0
KSB1 252151Z 07005KT 24/M08 A3021 RMK A01 T02421084  RH  011%=      5-min Rain = 0
KSB1 252152Z 02003KT 24/M08 A302 RMK A01 T02401084  RH  011%=      5-min Rain = 0
KSB1 252153Z 05002KT 24/M08 A302 RMK A01 T02391084  RH  011%=      5-min Rain = 0
KSB1 252154Z 13004KT 24/M08 A302 RMK A01 T02401082  RH  011%=      5-min Rain = 0
KSB1 252155Z 14003KT 24/M08 A302 RMK A01 T02431081  RH  011%=      5-min Rain = 0
KSB1 252156Z 15002KT 25/M08 A302 RMK A01 T02451082  RH  011%=      5-min Rain = 0
KSB1 252157Z 10003KT 25/M08 A302 RMK A01 T02451083  RH  011%=      5-min Rain = 0
KSB1 252158Z 09007KT 25/M08 A302 RMK A01 T02451082  RH  011%=      5-min Rain = 0
KSB1 252159Z 07007KT 25/M08 A302 RMK A01 T02451082  RH  011%=      5-min Rain = 0
KSB1 252200Z 07010KT 24/M08 A302 RMK A01 T02441083  RH  011%=      5-min Rain = 0
KSB1 252201Z 07012KT 24/M08 A302 RMK A01 T02441080  RH  011%=      5-min Rain = 0
KSB1 252202Z 08011KT 25/M08 A302 RMK A01 T02451080  RH  011%=      5-min Rain = 0
KSB1 252203Z 09008KT 24/M08 A302 RMK A01 T02441082  RH  011%=      5-min Rain = 0
KSB1 252204Z 11006KT 24/M08 A302 RMK A01 T02431080  RH  011%=      5-min Rain = 0
KSB1 252205Z 10010G15KT 24/M08 A302 RMK A01 T02441081  RH  011%=      5-min Rain = 0
KSB1 252206Z 11010KT 24/M08 A302 RMK A01 T02431081  RH  011%=      5-min Rain = 0
KSB1 252207Z 10008KT 25/M08 A302 RMK A01 T02451077  RH  011%=      5-min Rain = 0
KSB1 252208Z 09006KT 25/M08 A302 RMK A01 T02461081  RH  011%=      5-min Rain = 0
KSB1 252209Z 08003KT 24/M08 A302 RMK A01 T02431082  RH  011%=      5-min Rain = 0
KSB1 252210Z 11004KT 24/M08 A302 RMK A01 T02411084  RH  011%=      5-min Rain = 0
KSB1 252211Z 08004KT 24/M08 A302 RMK A01 T02411083  RH  011%=      5-min Rain = 0
KSB1 252212Z 08005KT 24/M08 A302 RMK A01 T02401082  RH  011%=      5-min Rain = 0
KSB1 252213Z 10005KT 24/M08 A302 RMK A01 T02411080  RH  011%=      5-min Rain = 0
KSB1 252214Z 12008KT 24/M08 A302 RMK A01 T02431078  RH  011%=      5-min Rain = 0
KSB1 252215Z 12009KT 24/M08 A302 RMK A01 T02441077  RH  011%=      5-min Rain = 0
KSB1 252216Z 13009KT 24/M08 A302 RMK A01 T02441079  RH  011%=      5-min Rain = 0
KSB1 252217Z 15007KT 24/M08 A302 RMK A01 T02421079  RH  011%=      5-min Rain = 0
KSB1 252218Z 12007KT 24/M08 A302 RMK A01 T02421077  RH  011%=      5-min Rain = 0
KSB1 252219Z 11010KT 25/M07 A302 RMK A01 T02461074  RH  011%=      5-min Rain = 0
KSB1 252220Z 12008KT 25/M08 A302 RMK A01 T02451077  RH  011%=      5-min Rain = 0
KSB1 252221Z 11010KT 24/M08 A302 RMK A01 T02431078  RH  011%=      5-min Rain = 0
KSB1 252222Z 13009KT 24/M08 A302 RMK A01 T02431077  RH  011%=      5-min Rain = 0
KSB1 252223Z 11008KT 24/M08 A302 RMK A01 T02421077  RH  011%=      5-min Rain = 0
KSB1 252224Z 10009KT 24/M08 A302 RMK A01 T02421078  RH  011%=      5-min Rain = 0
KSB1 252225Z 12008KT 24/M08 A302 RMK A01 T02411078  RH  011%=      5-min Rain = 0
KSB1 252226Z 13007KT 24/M08 A302 RMK A01 T02431075  RH  011%=      5-min Rain = 0
KSB1 252227Z 12008KT 24/M08 A302 RMK A01 T02441077  RH  011%=      5-min Rain = 0
KSB1 252228Z 10007KT 24/M08 A302 RMK A01 T02431079  RH  011%=      5-min Rain = 0
KSB1 252229Z 11005KT 24/M08 A302 RMK A01 T02411080  RH  011%=      5-min Rain = 0
KSB1 252230Z 14009KT 24/M08 A302 RMK A01 T02421076  RH  011%=      5-min Rain = 0
KSB1 252231Z 15010KT 24/M08 A302 RMK A01 T02441079  RH  011%=      5-min Rain = 0
KSB1 252232Z 14007KT 24/M08 A302 RMK A01 T02441079  RH  011%=      5-min Rain = 0
KSB1 252233Z 13006KT 24/M08 A302 RMK A01 T02431081  RH  011%=      5-min Rain = 0
KSB1 252234Z 12007KT 24/M08 A302 RMK A01 T02421079  RH  011%=      5-min Rain = 0
KSB1 252235Z 12006KT 24/M08 A302 RMK A01 T02431081  RH  011%=      5-min Rain = 0
KSB1 252236Z 11005KT 24/M08 A302 RMK A01 T02411083  RH  011%=      5-min Rain = 0
KSB1 252237Z 12004KT 24/M08 A302 RMK A01 T02401080  RH  011%=      5-min Rain = 0
KSB1 252238Z 13008KT 24/M08 A302 RMK A01 T02411078  RH  011%=      5-min Rain = 0
KSB1 252239Z 13006KT 24/M08 A302 RMK A01 T02411081  RH  011%=      5-min Rain = 0
KSB1 252240Z 13003KT 24/M08 A302 RMK A01 T02401082  RH  011%=      5-min Rain = 0
KSB1 252241Z 13002KT 24/M08 A302 RMK A01 T02391083  RH  011%=      5-min Rain = 0
KSB1 252242Z 11005KT 24/M08 A302 RMK A01 T02401082  RH  011%=      5-min Rain = 0
KSB1 252243Z 10003KT 24/M08 A302 RMK A01 T02401083  RH  011%=      5-min Rain = 0
KSB1 252244Z 10004KT 24/M08 A302 RMK A01 T02391082  RH  011%=      5-min Rain = 0
KSB1 252245Z 12005KT 24/M08 A302 RMK A01 T02391081  RH  011%=      5-min Rain = 0
KSB1 252246Z 10008KT 24/M08 A302 RMK A01 T02401079  RH  011%=      5-min Rain = 0
KSB1 252247Z 11007KT 24/M08 A302 RMK A01 T02421079  RH  011%=      5-min Rain = 0
KSB1 252248Z 12007KT 24/M08 A302 RMK A01 T02441077  RH  011%=      5-min Rain = 0
KSB1 252249Z 11008KT 24/M08 A302 RMK A01 T02441079  RH  011%=      5-min Rain = 0
KSB1 252250Z 12009KT 25/M08 A302 RMK A01 T02451076  RH  011%=      5-min Rain = 0
KSB1 252251Z 14006KT 25/M08 A302 RMK A01 T02461078  RH  011%=      5-min Rain = 0
KSB1 252252Z 14007KT 25/M08 A302 RMK A01 T02461078  RH  011%=      5-min Rain = 0
KSB1 252253Z 17007KT 25/M08 A302 RMK A01 T02451081  RH  011%=      5-min Rain = 0
KSB1 252254Z 19005KT 24/M08 A302 RMK A01 T02421082  RH  011%=      5-min Rain = 0
KSB1 252255Z 17004KT 24/M08 A302 RMK A01 T02401081  RH  011%=      5-min Rain = 0
KSB1 252256Z 16001KT 24/M08 A302 RMK A01 T02421079  RH  011%=      5-min Rain = 0
KSB1 252257Z 12001KT 24/M08 A302 RMK A01 T02441079  RH  011%=      5-min Rain = 0
KSB1 252258Z 10006KT 25/M08 A3019 RMK A01 T02461078  RH  011%=      5-min Rain = 0
KSB1 252259Z 09008KT 25/M08 A3019 RMK A01 T02471075  RH  011%=      5-min Rain = 0
KSB1 252300Z 09010KT 25/M08 A3019 RMK A01 T02471075  RH  011%=      5-min Rain = 0
KSB1 252301Z 11009KT 25/M08 A3019 RMK A01 T02461077  RH  011%=      5-min Rain = 0
KSB1 252302Z 14011KT 25/M08 A3019 RMK A01 T02461076  RH  011%=      5-min Rain = 0
KSB1 252303Z 14012KT 25/M08 A3019 RMK A01 T02461077  RH  011%=      5-min Rain = 0
KSB1 252304Z 15009KT 25/M08 A3019 RMK A01 T02461079  RH  011%=      5-min Rain = 0
KSB1 252305Z 14007KT 24/M08 A3019 RMK A01 T02441081  RH  011%=      5-min Rain = 0
KSB1 252306Z 15004KT 24/M08 A3019 RMK A01 T02421081  RH  011%=      5-min Rain = 0
KSB1 252307Z 14003KT 24/M08 A3019 RMK A01 T02411082  RH  011%=      5-min Rain = 0
KSB1 252308Z 15002KT 24/M08 A3019 RMK A01 T02421080  RH  011%=      5-min Rain = 0
KSB1 252309Z 12001KT 24/M08 A3019 RMK A01 T02421082  RH  011%=      5-min Rain = 0
KSB1 252310Z 09002KT 24/M08 A3019 RMK A01 T02421081  RH  011%=      5-min Rain = 0
KSB1 252311Z 09004KT 24/M08 A3019 RMK A01 T02431077  RH  011%=      5-min Rain = 0
KSB1 252312Z 12006KT 25/M08 A3019 RMK A01 T02451076  RH  011%=      5-min Rain = 0
KSB1 252313Z 12007KT 24/M08 A3019 RMK A01 T02441077  RH  011%=      5-min Rain = 0
KSB1 252314Z 11007KT 24/M07 A3019 RMK A01 T02441073  RH  012%=      5-min Rain = 0
KSB1 252315Z 09010KT 25/M07 A3019 RMK A01 T02451072  RH  012%=      5-min Rain = 0
KSB1 252316Z 09011KT 24/M07 A3019 RMK A01 T02441074  RH  012%=      5-min Rain = 0
KSB1 252317Z 09010KT 24/M07 A3019 RMK A01 T02421074  RH  012%=      5-min Rain = 0
KSB1 252318Z 08006KT 24/M08 A3019 RMK A01 T02401075  RH  012%=      5-min Rain = 0
KSB1 252319Z 10006KT 24/M08 A3019 RMK A01 T02371076  RH  012%=      5-min Rain = 0
KSB1 252320Z 13010KT 24/M07 A3019 RMK A01 T02371073  RH  012%=      5-min Rain = 0
KSB1 252321Z 13009KT 24/M07 A3019 RMK A01 T02391072  RH  012%=      5-min Rain = 0
KSB1 252322Z 14010KT 24/M07 A3019 RMK A01 T02391074  RH  012%=      5-min Rain = 0
KSB1 252323Z 14008KT 24/M07 A3019 RMK A01 T02401074  RH  012%=      5-min Rain = 0
KSB1 252324Z 12007KT 24/M07 A3019 RMK A01 T02411073  RH  012%=      5-min Rain = 0
KSB1 252325Z 10007KT 24/M07 A3019 RMK A01 T02421071  RH  012%=      5-min Rain = 0
KSB1 252326Z 10007KT 24/M07 A3019 RMK A01 T02421073  RH  012%=      5-min Rain = 0
KSB1 252327Z 11006KT 24/M07 A3019 RMK A01 T02411074  RH  012%=      5-min Rain = 0
KSB1 252328Z 11008KT 24/M07 A3019 RMK A01 T02401073  RH  012%=      5-min Rain = 0
KSB1 252329Z 10012KT 24/M07 A3019 RMK A01 T02401072  RH  012%=      5-min Rain = 0
KSB1 252330Z 10012KT 24/M07 A3019 RMK A01 T02411073  RH  012%=      5-min Rain = 0
KSB1 252331Z 10013KT 24/M07 A3019 RMK A01 T02391073  RH  012%=      5-min Rain = 0
KSB1 252332Z 11009KT 24/M07 A3019 RMK A01 T02391074  RH  012%=      5-min Rain = 0
KSB1 252333Z 09007KT 24/M07 A3019 RMK A01 T02381073  RH  012%=      5-min Rain = 0
KSB1 252334Z 12006KT 24/M07 A3019 RMK A01 T02381073  RH  012%=      5-min Rain = 0
KSB1 252335Z 13004KT 24/M08 A3019 RMK A01 T02381075  RH  012%=      5-min Rain = 0
KSB1 252336Z 12003KT 24/M07 A3019 RMK A01 T02371073  RH  012%=      5-min Rain = 0
KSB1 252337Z 12004KT 24/M07 A3019 RMK A01 T02391071  RH  012%=      5-min Rain = 0
KSB1 252338Z 11004KT 24/M07 A3019 RMK A01 T02381074  RH  012%=      5-min Rain = 0
KSB1 252339Z 10004KT 24/M07 A3019 RMK A01 T02381073  RH  012%=      5-min Rain = 0
KSB1 252340Z 10005KT 24/M07 A3019 RMK A01 T02371073  RH  012%=      5-min Rain = 0
KSB1 252341Z 13003KT 24/M08 A3019 RMK A01 T02361075  RH  012%=      5-min Rain = 0
KSB1 252342Z 22002KT 24/M08 A3019 RMK A01 T02351075  RH  012%=      5-min Rain = 0
KSB1 252343Z 23002KT 24/M08 A3019 RMK A01 T02351075  RH  012%=      5-min Rain = 0
KSB1 252344Z 24001KT 24/M08 A3019 RMK A01 T02361075  RH  012%=      5-min Rain = 0
KSB1 252345Z 10003KT 24/M07 A3019 RMK A01 T02371074  RH  012%=      5-min Rain = 0
KSB1 252346Z 10005KT 24/M07 A3019 RMK A01 T02381073  RH  012%=      5-min Rain = 0
KSB1 252347Z 11008KT 24/M07 A3019 RMK A01 T02381072  RH  012%=      5-min Rain = 0
KSB1 252348Z 12009KT 24/M07 A3019 RMK A01 T02381070  RH  012%=      5-min Rain = 0
KSB1 252349Z 11009KT 24/M07 A3019 RMK A01 T02381070  RH  012%=      5-min Rain = 0
KSB1 252350Z 09010KT 24/M07 A3019 RMK A01 T02391070  RH  012%=      5-min Rain = 0
KSB1 252351Z 10008KT 24/M07 A3019 RMK A01 T02381070  RH  012%=      5-min Rain = 0
KSB1 252352Z 10007KT 24/M07 A3019 RMK A01 T02381069  RH  012%=      5-min Rain = 0
KSB1 252353Z 09008KT 24/M07 A3019 RMK A01 T02391070  RH  012%=      5-min Rain = 0
KSB1 252354Z 09008KT 24/M07 A3019 RMK A01 T02381070  RH  012%=      5-min Rain = 0
KSB1 252355Z 10006KT 24/M07 A3019 RMK A01 T02371070  RH  012%=      5-min Rain = 0
KSB1 252356Z 11007KT 24/M07 A3019 RMK A01 T02371070  RH  012%=      5-min Rain = 0
KSB1 252357Z 11008KT 24/M07 A3019 RMK A01 T02371070  RH  012%=      5-min Rain = 0
KSB1 252358Z 13007KT 24/M07 A3019 RMK A01 T02371070  RH  012%=      5-min Rain = 0
KSB1 252359Z 14006KT 24/M07 A3019 RMK A01 T02361069  RH  012%=      5-min Rain = 0
KSB1 260000Z 15004KT 24/M07 A3019 RMK A01 T02361070  RH  012%=      5-min Rain = 0
KSB1 260001Z 14004KT 24/M07 A3019 RMK A01 T02361068  RH  013%=      5-min Rain = 0
KSB1 260002Z 12005KT 24/M07 A3019 RMK A01 T02371069  RH  013%=      5-min Rain = 0
KSB1 260003Z 12007KT 24/M07 A3019 RMK A01 T02361068  RH  013%=      5-min Rain = 0
KSB1 260004Z 12007KT 24/M07 A3019 RMK A01 T02351068  RH  013%=      5-min Rain = 0
KSB1 260005Z 11010KT 23/M07 A3019 RMK A01 T02341067  RH  013%=      5-min Rain = 0
KSB1 260006Z 11009KT 23/M07 A3019 RMK A01 T02331067  RH  013%=      5-min Rain = 0
KSB1 260007Z 11008KT 23/M07 A3019 RMK A01 T02321068  RH  013%=      5-min Rain = 0
KSB1 260008Z 11008KT 23/M07 A3019 RMK A01 T02311068  RH  013%=      5-min Rain = 0
KSB1 260009Z 10009KT 23/M07 A3019 RMK A01 T02301068  RH  013%=      5-min Rain = 0
KSB1 260010Z 11008KT 23/M07 A3019 RMK A01 T02291068  RH  013%=      5-min Rain = 0
KSB1 260011Z 12007KT 23/M07 A3019 RMK A01 T02291067  RH  013%=      5-min Rain = 0
KSB1 260012Z 11007KT 23/M07 A3019 RMK A01 T02291068  RH  013%=      5-min Rain = 0
KSB1 260013Z 12009KT 23/M07 A3019 RMK A01 T02281068  RH  013%=      5-min Rain = 0
KSB1 260014Z 10008KT 23/M07 A3019 RMK A01 T02281068  RH  013%=      5-min Rain = 0
KSB1 260015Z 09009KT 23/M07 A3019 RMK A01 T02281067  RH  013%=      5-min Rain = 0
KSB1 260016Z 08007KT 23/M07 A3019 RMK A01 T02281067  RH  013%=      5-min Rain = 0
KSB1 260017Z 07006KT 23/M07 A3019 RMK A01 T02271067  RH  013%=      5-min Rain = 0
KSB1 260018Z 08005KT 23/M07 A3019 RMK A01 T02281066  RH  013%=      5-min Rain = 0
KSB1 260019Z 10007KT 23/M07 A3019 RMK A01 T02281066  RH  013%=      5-min Rain = 0
KSB1 260020Z 10006KT 23/M07 A3019 RMK A01 T02281066  RH  013%=      5-min Rain = 0
KSB1 260021Z 11007KT 23/M07 A3019 RMK A01 T02271066  RH  013%=      5-min Rain = 0
KSB1 260022Z 11008KT 23/M07 A3019 RMK A01 T02281067  RH  013%=      5-min Rain = 0
KSB1 260023Z 11007KT 23/M07 A3019 RMK A01 T02271067  RH  013%=      5-min Rain = 0
KSB1 260024Z 12007KT 23/M07 A3019 RMK A01 T02271066  RH  014%=      5-min Rain = 0
KSB1 260025Z 12007KT 23/M07 A3019 RMK A01 T02271066  RH  014%=      5-min Rain = 0
KSB1 260026Z 11005KT 23/M07 A3019 RMK A01 T02271066  RH  014%=      5-min Rain = 0
KSB1 260027Z 11006KT 23/M07 A3019 RMK A01 T02281065  RH  014%=      5-min Rain = 0
KSB1 260028Z 11008KT 23/M07 A3019 RMK A01 T02281066  RH  013%=      5-min Rain = 0
KSB1 260029Z 11008KT 23/M07 A3019 RMK A01 T02291066  RH  013%=      5-min Rain = 0
KSB1 260030Z 10008KT 23/M07 A3019 RMK A01 T02291065  RH  013%=      5-min Rain = 0
KSB1 260031Z 11008KT 23/M07 A3019 RMK A01 T02281065  RH  013%=      5-min Rain = 0
KSB1 260032Z 11009KT 23/M06 A3019 RMK A01 T02291064  RH  014%=      5-min Rain = 0
KSB1 260033Z 11007KT 23/M06 A3019 RMK A01 T02281064  RH  014%=      5-min Rain = 0
KSB1 260034Z 11008KT 23/M06 A3019 RMK A01 T02281064  RH  014%=      5-min Rain = 0
KSB1 260035Z 12009KT 23/M07 A3019 RMK A01 T02271065  RH  014%=      5-min Rain = 0
KSB1 260036Z 11008KT 23/M06 A3019 RMK A01 T02271064  RH  014%=      5-min Rain = 0
KSB1 260037Z 11008KT 23/M06 A3019 RMK A01 T02271063  RH  014%=      5-min Rain = 0
KSB1 260038Z 11007KT 23/M06 A3019 RMK A01 T02261063  RH  014%=      5-min Rain = 0
KSB1 260039Z 10007KT 23/M06 A3019 RMK A01 T02261062  RH  014%=      5-min Rain = 0
KSB1 260040Z 10008KT 23/M06 A3019 RMK A01 T02251060  RH  014%=      5-min Rain = 0
KSB1 260041Z 10009KT 23/M06 A3019 RMK A01 T02251058  RH  015%=      5-min Rain = 0
KSB1 260042Z 10009KT 22/M06 A3019 RMK A01 T02241057  RH  015%=      5-min Rain = 0
KSB1 260043Z 11008KT 22/M06 A3019 RMK A01 T02231056  RH  015%=      5-min Rain = 0
KSB1 260044Z 10009KT 22/M06 A3019 RMK A01 T02231055  RH  015%=      5-min Rain = 0
KSB1 260045Z 10008KT 22/M06 A3019 RMK A01 T02221055  RH  015%=      5-min Rain = 0
KSB1 260046Z 11010KT 22/M05 A3019 RMK A01 T02211054  RH  015%=      5-min Rain = 0
KSB1 260047Z 10009KT 22/M05 A3019 RMK A01 T02211054  RH  015%=      5-min Rain = 0
KSB1 260048Z 10009KT 22/M05 A3019 RMK A01 T02211053  RH  015%=      5-min Rain = 0
KSB1 260049Z 11008KT 22/M05 A3019 RMK A01 T02211053  RH  016%=      5-min Rain = 0
KSB1 260050Z 11007KT 22/M05 A3019 RMK A01 T02201053  RH  016%=      5-min Rain = 0
KSB1 260051Z 11008KT 22/M05 A302 RMK A01 T02201052  RH  016%=      5-min Rain = 0
KSB1 260052Z 11008KT 22/M05 A302 RMK A01 T02201052  RH  016%=      5-min Rain = 0
KSB1 260053Z 11007KT 22/M05 A302 RMK A01 T02191052  RH  016%=      5-min Rain = 0
KSB1 260054Z 11007KT 22/M05 A302 RMK A01 T02181052  RH  016%=      5-min Rain = 0
KSB1 260055Z 11007KT 22/M05 A302 RMK A01 T02181051  RH  016%=      5-min Rain = 0
KSB1 260056Z 10008KT 22/M05 A302 RMK A01 T02171051  RH  016%=      5-min Rain = 0
KSB1 260057Z 10007KT 22/M05 A302 RMK A01 T02171051  RH  016%=      5-min Rain = 0
KSB1 260058Z 10007KT 22/M05 A302 RMK A01 T02161051  RH  016%=      5-min Rain = 0
KSB1 260059Z 11007KT 22/M05 A302 RMK A01 T02151050  RH  016%=      5-min Rain = 0
KSB1 260100Z 11007KT 21/M05 A302 RMK A01 T02141051  RH  016%=      5-min Rain = 0
KSB1 260101Z 11007KT 21/M05 A302 RMK A01 T02141050  RH  017%=      5-min Rain = 0
KSB1 260102Z 11009KT 21/M05 A302 RMK A01 T02131050  RH  017%=      5-min Rain = 0
KSB1 260103Z 11008KT 21/M05 A302 RMK A01 T02131051  RH  017%=      5-min Rain = 0
KSB1 260104Z 11008KT 21/M05 A302 RMK A01 T02121050  RH  017%=      5-min Rain = 0
KSB1 260105Z 11010KT 21/M05 A302 RMK A01 T02111050  RH  017%=      5-min Rain = 0
KSB1 260106Z 10010KT 21/M05 A302 RMK A01 T02111049  RH  017%=      5-min Rain = 0
KSB1 260107Z 11010KT 21/M05 A302 RMK A01 T02111049  RH  017%=      5-min Rain = 0
KSB1 260108Z 10010KT 21/M05 A302 RMK A01 T02101048  RH  017%=      5-min Rain = 0
KSB1 260109Z 11011KT 21/M05 A302 RMK A01 T02101049  RH  017%=      5-min Rain = 0
KSB1 260110Z 11010KT 21/M05 A302 RMK A01 T02101048  RH  017%=      5-min Rain = 0
KSB1 260111Z 11010KT 21/M05 A302 RMK A01 T02091048  RH  017%=      5-min Rain = 0
KSB1 260112Z 11011KT 21/M05 A302 RMK A01 T02081047  RH  018%=      5-min Rain = 0
KSB1 260113Z 11010KT 21/M05 A302 RMK A01 T02081047  RH  018%=      5-min Rain = 0
KSB1 260114Z 11010KT 21/M05 A302 RMK A01 T02071047  RH  018%=      5-min Rain = 0
KSB1 260115Z 10010KT 21/M05 A302 RMK A01 T02061046  RH  018%=      5-min Rain = 0
KSB1 260116Z 11010KT 21/M05 A302 RMK A01 T02061046  RH  018%=      5-min Rain = 0
KSB1 260117Z 11011KT 21/M05 A302 RMK A01 T02051046  RH  018%=      5-min Rain = 0
KSB1 260118Z 11010KT 21/M05 A302 RMK A01 T02051046  RH  018%=      5-min Rain = 0
KSB1 260119Z 11010KT 20/M05 A302 RMK A01 T02041046  RH  018%=      5-min Rain = 0
KSB1 260120Z 11010KT 20/M05 A302 RMK A01 T02041046  RH  018%=      5-min Rain = 0
KSB1 260121Z 11011KT 20/M05 A302 RMK A01 T02041045  RH  018%=      5-min Rain = 0
KSB1 260122Z 10012KT 20/M05 A302 RMK A01 T02031045  RH  018%=      5-min Rain = 0
KSB1 260123Z 10012KT 20/M05 A302 RMK A01 T02031045  RH  018%=      5-min Rain = 0
KSB1 260124Z 10011KT 20/M05 A302 RMK A01 T02031045  RH  018%=      5-min Rain = 0
KSB1 260125Z 11010KT 20/M05 A302 RMK A01 T02021045  RH  019%=      5-min Rain = 0
KSB1 260126Z 11010KT 20/M05 A302 RMK A01 T02021045  RH  019%=      5-min Rain = 0
KSB1 260127Z 11009KT 20/M05 A302 RMK A01 T02011045  RH  019%=      5-min Rain = 0
KSB1 260128Z 11011KT 20/M05 A302 RMK A01 T02001045  RH  019%=      5-min Rain = 0
KSB1 260129Z 10011KT 20/M05 A302 RMK A01 T02001045  RH  019%=      5-min Rain = 0
KSB1 260130Z 10011KT 20/M05 A302 RMK A01 T02001045  RH  019%=      5-min Rain = 0
KSB1 260131Z 10010KT 20/M05 A302 RMK A01 T02001045  RH  019%=      5-min Rain = 0
KSB1 260132Z 10011KT 20/M05 A302 RMK A01 T02001045  RH  019%=      5-min Rain = 0
KSB1 260133Z 10011KT 20/M05 A302 RMK A01 T01991045  RH  019%=      5-min Rain = 0
KSB1 260134Z 10010KT 20/M05 A302 RMK A01 T01991045  RH  019%=      5-min Rain = 0
KSB1 260135Z 10011KT 20/M05 A302 RMK A01 T01981045  RH  019%=      5-min Rain = 0
KSB1 260136Z 10011KT 20/M05 A302 RMK A01 T01981045  RH  019%=      5-min Rain = 0
KSB1 260137Z 11010KT 20/M05 A302 RMK A01 T01981045  RH  019%=      5-min Rain = 0
KSB1 260138Z 10011KT 20/M04 A302 RMK A01 T01971044  RH  019%=      5-min Rain = 0
KSB1 260139Z 10010KT 20/M05 A302 RMK A01 T01971045  RH  019%=      5-min Rain = 0
KSB1 260140Z 11010KT 20/M05 A302 RMK A01 T01971045  RH  019%=      5-min Rain = 0
KSB1 260141Z 10010KT 20/M05 A3021 RMK A01 T01961045  RH  019%=      5-min Rain = 0
KSB1 260142Z 10010KT 20/M05 A3021 RMK A01 T01951045  RH  019%=      5-min Rain = 0
KSB1 260143Z 10010KT 20/M04 A3021 RMK A01 T01951044  RH  020%=      5-min Rain = 0
KSB1 260144Z 10010KT 19/M04 A3021 RMK A01 T01941043  RH  020%=      5-min Rain = 0
KSB1 260145Z 10011KT 19/M04 A3021 RMK A01 T01941043  RH  020%=      5-min Rain = 0
KSB1 260146Z 10010KT 19/M04 A3021 RMK A01 T01941042  RH  020%=      5-min Rain = 0
KSB1 260147Z 09011KT 19/M04 A3021 RMK A01 T01941042  RH  020%=      5-min Rain = 0
KSB1 260148Z 09010KT 19/M04 A3021 RMK A01 T01931042  RH  020%=      5-min Rain = 0
KSB1 260149Z 09010KT 19/M04 A3021 RMK A01 T01931041  RH  020%=      5-min Rain = 0
KSB1 260150Z 09011KT 19/M04 A3021 RMK A01 T01921040  RH  020%=      5-min Rain = 0
KSB1 260151Z 09011KT 19/M04 A3021 RMK A01 T01921040  RH  021%=      5-min Rain = 0
KSB1 260152Z 09010KT 19/M04 A3021 RMK A01 T01921039  RH  021%=      5-min Rain = 0
KSB1 260153Z 09010KT 19/M04 A3021 RMK A01 T01921039  RH  021%=      5-min Rain = 0
KSB1 260154Z 09011KT 19/M04 A3021 RMK A01 T01911038  RH  021%=      5-min Rain = 0
KSB1 260155Z 09010KT 19/M04 A3021 RMK A01 T01911038  RH  021%=      5-min Rain = 0
KSB1 260156Z 09010KT 19/M04 A3021 RMK A01 T01901037  RH  021%=      5-min Rain = 0
KSB1 260157Z 09009KT 19/M04 A3021 RMK A01 T01901037  RH  021%=      5-min Rain = 0
KSB1 260158Z 09009KT 19/M04 A3021 RMK A01 T01901036  RH  021%=      5-min Rain = 0
KSB1 260159Z 09011KT 19/M04 A3021 RMK A01 T01891036  RH  021%=      5-min Rain = 0
KSB1 260200Z 09010KT 19/M04 A3021 RMK A01 T01891035  RH  022%=      5-min Rain = 0
KSB1 260201Z 09012KT 19/M04 A3021 RMK A01 T01891035  RH  022%=      5-min Rain = 0
KSB1 260202Z 09010KT 19/M04 A3021 RMK A01 T01891035  RH  022%=      5-min Rain = 0
KSB1 260203Z 09010KT 19/M04 A3021 RMK A01 T01891035  RH  022%=      5-min Rain = 0
KSB1 260204Z 09010KT 19/M04 A3021 RMK A01 T01891035  RH  022%=      5-min Rain = 0
KSB1 260205Z 09010KT 19/M03 A3021 RMK A01 T01881034  RH  022%=      5-min Rain = 0
KSB1 260206Z 09010KT 19/M03 A3021 RMK A01 T01881034  RH  022%=      5-min Rain = 0
KSB1 260207Z 09010KT 19/M03 A3021 RMK A01 T01881034  RH  022%=      5-min Rain = 0
KSB1 260208Z 09011KT 19/M03 A3021 RMK A01 T01871034  RH  022%=      5-min Rain = 0
KSB1 260209Z 09011KT 19/M03 A3021 RMK A01 T01881033  RH  022%=      5-min Rain = 0
KSB1 260210Z 09012KT 19/M03 A3021 RMK A01 T01881034  RH  022%=      5-min Rain = 0
KSB1 260211Z 09011KT 19/M03 A3021 RMK A01 T01881034  RH  022%=      5-min Rain = 0
KSB1 260212Z 10011KT 19/M03 A3021 RMK A01 T01881033  RH  022%=      5-min Rain = 0
KSB1 260213Z 09011KT 19/M03 A3021 RMK A01 T01881033  RH  022%=      5-min Rain = 0
KSB1 260214Z 09010KT 19/M03 A3021 RMK A01 T01881033  RH  022%=      5-min Rain = 0
KSB1 260215Z 10010KT 19/M03 A3021 RMK A01 T01871033  RH  022%=      5-min Rain = 0
KSB1 260216Z 09011KT 19/M03 A3021 RMK A01 T01871032  RH  022%=      5-min Rain = 0
KSB1 260217Z 09010KT 19/M03 A3021 RMK A01 T01861032  RH  022%=      5-min Rain = 0
KSB1 260218Z 09011KT 19/M03 A3021 RMK A01 T01861032  RH  023%=      5-min Rain = 0
KSB1 260219Z 10010KT 19/M03 A3021 RMK A01 T01851032  RH  023%=      5-min Rain = 0
KSB1 260220Z 10012KT 19/M03 A3021 RMK A01 T01851032  RH  023%=      5-min Rain = 0
KSB1 260221Z 09011KT 19/M03 A3021 RMK A01 T01861032  RH  023%=      5-min Rain = 0
KSB1 260222Z 09009KT 19/M03 A3022 RMK A01 T01861032  RH  023%=      5-min Rain = 0
KSB1 260223Z 10009KT 19/M03 A3022 RMK A01 T01851032  RH  023%=      5-min Rain = 0
KSB1 260224Z 10012KT 18/M03 A3022 RMK A01 T01841031  RH  023%=      5-min Rain = 0
KSB1 260225Z 10010KT 18/M03 A3022 RMK A01 T01841031  RH  023%=      5-min Rain = 0
KSB1 260226Z 10010KT 18/M03 A3022 RMK A01 T01831031  RH  023%=      5-min Rain = 0
KSB1 260227Z 10011KT 18/M03 A3022 RMK A01 T01831031  RH  023%=      5-min Rain = 0
KSB1 260228Z 10012KT 18/M03 A3022 RMK A01 T01831031  RH  023%=      5-min Rain = 0
KSB1 260229Z 10011KT 18/M03 A3022 RMK A01 T01841031  RH  023%=      5-min Rain = 0
KSB1 260230Z 10011KT 18/M03 A3022 RMK A01 T01841031  RH  023%=      5-min Rain = 0
KSB1 260231Z 10012KT 18/M03 A3022 RMK A01 T01841031  RH  023%=      5-min Rain = 0
KSB1 260232Z 10013KT 18/M03 A3022 RMK A01 T01841031  RH  023%=      5-min Rain = 0
KSB1 260233Z 10012KT 18/M03 A3022 RMK A01 T01841030  RH  023%=      5-min Rain = 0
KSB1 260234Z 10012KT 18/M03 A3022 RMK A01 T01841031  RH  023%=      5-min Rain = 0
KSB1 260235Z 10011KT 18/M03 A3022 RMK A01 T01841030  RH  023%=      5-min Rain = 0
KSB1 260236Z 10011KT 18/M03 A3022 RMK A01 T01841030  RH  023%=      5-min Rain = 0
KSB1 260237Z 10011KT 18/M03 A3022 RMK A01 T01831030  RH  023%=      5-min Rain = 0
KSB1 260238Z 11010KT 18/M03 A3022 RMK A01 T01831030  RH  023%=      5-min Rain = 0
KSB1 260239Z 10010KT 18/M03 A3022 RMK A01 T01821030  RH  023%=      5-min Rain = 0
KSB1 260240Z 11011KT 18/M03 A3022 RMK A01 T01821030  RH  023%=      5-min Rain = 0
KSB1 260241Z 11010KT 18/M03 A3022 RMK A01 T01821030  RH  023%=      5-min Rain = 0
KSB1 260242Z 11009KT 18/M03 A3022 RMK A01 T01821030  RH  024%=      5-min Rain = 0
KSB1 260243Z 11010KT 18/M03 A3022 RMK A01 T01811030  RH  024%=      5-min Rain = 0
KSB1 260244Z 11009KT 18/M03 A3023 RMK A01 T01801030  RH  024%=      5-min Rain = 0
KSB1 260245Z 10009KT 18/M03 A3023 RMK A01 T01801030  RH  024%=      5-min Rain = 0
KSB1 260246Z 10010KT 18/M03 A3023 RMK A01 T01791030  RH  024%=      5-min Rain = 0
KSB1 260247Z 10008KT 18/M03 A3023 RMK A01 T01791029  RH  024%=      5-min Rain = 0
KSB1 260248Z 10010KT 18/M03 A3023 RMK A01 T01781029  RH  024%=      5-min Rain = 0
KSB1 260249Z 10010KT 18/M03 A3023 RMK A01 T01791029  RH  024%=      5-min Rain = 0
KSB1 260250Z 10010KT 18/M03 A3023 RMK A01 T01791029  RH  024%=      5-min Rain = 0
KSB1 260251Z 10010KT 18/M03 A3023 RMK A01 T01791029  RH  024%=      5-min Rain = 0
KSB1 260252Z 10011KT 18/M03 A3023 RMK A01 T01781029  RH  024%=      5-min Rain = 0
KSB1 260253Z 10010KT 18/M03 A3023 RMK A01 T01781029  RH  024%=      5-min Rain = 0
KSB1 260254Z 10009KT 18/M03 A3023 RMK A01 T01781028  RH  024%=      5-min Rain = 0
KSB1 260255Z 10009KT 18/M03 A3023 RMK A01 T01791028  RH  024%=      5-min Rain = 0
KSB1 260256Z 10009KT 18/M03 A3023 RMK A01 T01781028  RH  024%=      5-min Rain = 0
KSB1 260257Z 10011KT 18/M03 A3023 RMK A01 T01781028  RH  024%=      5-min Rain = 0
KSB1 260258Z 10009KT 18/M03 A3023 RMK A01 T01771028  RH  025%=      5-min Rain = 0
KSB1 260259Z 10009KT 18/M03 A3023 RMK A01 T01771028  RH  025%=      5-min Rain = 0
KSB1 260300Z 11009KT 18/M03 A3023 RMK A01 T01771027  RH  025%=      5-min Rain = 0
KSB1 260301Z 11010KT 18/M03 A3023 RMK A01 T01761027  RH  025%=      5-min Rain = 0
KSB1 260302Z 11009KT 18/M03 A3023 RMK A01 T01761027  RH  025%=      5-min Rain = 0
KSB1 260303Z 11009KT 18/M03 A3023 RMK A01 T01761027  RH  025%=      5-min Rain = 0
KSB1 260304Z 11010KT 18/M03 A3023 RMK A01 T01761027  RH  025%=      5-min Rain = 0
KSB1 260305Z 11009KT 18/M03 A3023 RMK A01 T01761027  RH  025%=      5-min Rain = 0
KSB1 260306Z 11009KT 18/M03 A3023 RMK A01 T01761026  RH  025%=      5-min Rain = 0
KSB1 260307Z 11010KT 18/M03 A3024 RMK A01 T01761026  RH  025%=      5-min Rain = 0
KSB1 260308Z 11012KT 18/M03 A3023 RMK A01 T01751026  RH  025%=      5-min Rain = 0
KSB1 260309Z 11011KT 18/M03 A3023 RMK A01 T01761026  RH  025%=      5-min Rain = 0
KSB1 260310Z 11010KT 18/M03 A3023 RMK A01 T01761025  RH  025%=      5-min Rain = 0
KSB1 260311Z 12010KT 18/M03 A3023 RMK A01 T01761025  RH  025%=      5-min Rain = 0
KSB1 260312Z 11009KT 18/M03 A3024 RMK A01 T01761025  RH  025%=      5-min Rain = 0
KSB1 260313Z 12009KT 18/M03 A3024 RMK A01 T01751025  RH  025%=      5-min Rain = 0
KSB1 260314Z 12008KT 17/M03 A3024 RMK A01 T01741025  RH  026%=      5-min Rain = 0
KSB1 260315Z 12009KT 17/M03 A3024 RMK A01 T01741025  RH  026%=      5-min Rain = 0
KSB1 260316Z 12009KT 17/M03 A3024 RMK A01 T01731025  RH  026%=      5-min Rain = 0
KSB1 260317Z 12007KT 17/M03 A3024 RMK A01 T01741025  RH  026%=      5-min Rain = 0
KSB1 260318Z 12007KT 17/M03 A3024 RMK A01 T01731026  RH  026%=      5-min Rain = 0
KSB1 260319Z 12008KT 17/M03 A3024 RMK A01 T01721026  RH  026%=      5-min Rain = 0
KSB1 260320Z 12007KT 17/M03 A3024 RMK A01 T01711026  RH  026%=      5-min Rain = 0
KSB1 260321Z 11008KT 17/M03 A3024 RMK A01 T01711026  RH  026%=      5-min Rain = 0
KSB1 260322Z 12008KT 17/M03 A3024 RMK A01 T01711026  RH  026%=      5-min Rain = 0
KSB1 260323Z 12006KT 17/M03 A3024 RMK A01 T01711026  RH  026%=      5-min Rain = 0
KSB1 260324Z 11007KT 17/M03 A3024 RMK A01 T01711026  RH  026%=      5-min Rain = 0
KSB1 260325Z 11008KT 17/M03 A3024 RMK A01 T01691026  RH  026%=      5-min Rain = 0
KSB1 260326Z 11007KT 17/M03 A3024 RMK A01 T01691026  RH  026%=      5-min Rain = 0
KSB1 260327Z 11008KT 17/M03 A3024 RMK A01 T01691026  RH  026%=      5-min Rain = 0
KSB1 260328Z 11008KT 17/M03 A3024 RMK A01 T01691026  RH  026%=      5-min Rain = 0
KSB1 260329Z 12007KT 17/M03 A3024 RMK A01 T01691026  RH  026%=      5-min Rain = 0
KSB1 260330Z 11007KT 17/M03 A3024 RMK A01 T01691026  RH  026%=      5-min Rain = 0
KSB1 260331Z 11006KT 17/M03 A3024 RMK A01 T01691026  RH  026%=      5-min Rain = 0
KSB1 260332Z 11007KT 17/M03 A3024 RMK A01 T01681026  RH  026%=      5-min Rain = 0
KSB1 260333Z 11008KT 17/M03 A3024 RMK A01 T01671026  RH  027%=      5-min Rain = 0
KSB1 260334Z 11007KT 17/M03 A3024 RMK A01 T01671025  RH  027%=      5-min Rain = 0
KSB1 260335Z 11007KT 17/M02 A3024 RMK A01 T01671024  RH  027%=      5-min Rain = 0
KSB1 260336Z 11006KT 17/M03 A3024 RMK A01 T01661025  RH  027%=      5-min Rain = 0
KSB1 260337Z 11006KT 17/M03 A3024 RMK A01 T01651025  RH  027%=      5-min Rain = 0
KSB1 260338Z 11006KT 17/M02 A3024 RMK A01 T01651024  RH  027%=      5-min Rain = 0
KSB1 260339Z 11007KT 16/M02 A3024 RMK A01 T01641024  RH  027%=      5-min Rain = 0
KSB1 260340Z 10007KT 16/M02 A3024 RMK A01 T01641024  RH  028%=      5-min Rain = 0
KSB1 260341Z 11007KT 16/M02 A3025 RMK A01 T01641023  RH  028%=      5-min Rain = 0
KSB1 260342Z 11007KT 16/M02 A3025 RMK A01 T01641023  RH  028%=      5-min Rain = 0
KSB1 260343Z 11007KT 16/M02 A3025 RMK A01 T01641023  RH  028%=      5-min Rain = 0
KSB1 260344Z 11007KT 16/M02 A3025 RMK A01 T01641023  RH  028%=      5-min Rain = 0
KSB1 260345Z 11008KT 16/M02 A3025 RMK A01 T01641022  RH  028%=      5-min Rain = 0
KSB1 260346Z 11007KT 16/M02 A3025 RMK A01 T01641022  RH  028%=      5-min Rain = 0
KSB1 260347Z 11007KT 16/M02 A3025 RMK A01 T01641022  RH  028%=      5-min Rain = 0
KSB1 260348Z 11008KT 16/M02 A3025 RMK A01 T01641022  RH  028%=      5-min Rain = 0
KSB1 260349Z 11006KT 16/M02 A3025 RMK A01 T01631022  RH  028%=      5-min Rain = 0
KSB1 260350Z 11007KT 16/M02 A3025 RMK A01 T01631021  RH  028%=      5-min Rain = 0
KSB1 260351Z 11007KT 16/M02 A3025 RMK A01 T01631021  RH  028%=      5-min Rain = 0
KSB1 260352Z 11007KT 16/M02 A3025 RMK A01 T01631021  RH  028%=      5-min Rain = 0
KSB1 260353Z 11007KT 16/M02 A3025 RMK A01 T01631020  RH  028%=      5-min Rain = 0
KSB1 260354Z 11007KT 16/M02 A3025 RMK A01 T01631020  RH  028%=      5-min Rain = 0
KSB1 260355Z 11007KT 16/M02 A3025 RMK A01 T01641020  RH  028%=      5-min Rain = 0
KSB1 260356Z 11007KT 16/M02 A3025 RMK A01 T01641020  RH  028%=      5-min Rain = 0
KSB1 260357Z 10007KT 16/M02 A3025 RMK A01 T01641020  RH  028%=      5-min Rain = 0
KSB1 260358Z 10008KT 16/M02 A3025 RMK A01 T01641020  RH  028%=      5-min Rain = 0
KSB1 260359Z 10007KT 16/M02 A3025 RMK A01 T01641019  RH  029%=      5-min Rain = 0
KSB1 260400Z 10007KT 16/M02 A3025 RMK A01 T01641018  RH  029%=      5-min Rain = 0
KSB1 260401Z 10007KT 16/M02 A3025 RMK A01 T01641018  RH  029%=      5-min Rain = 0
KSB1 260402Z 10007KT 16/M02 A3025 RMK A01 T01641018  RH  029%=      5-min Rain = 0
KSB1 260403Z 10008KT 16/M02 A3025 RMK A01 T01641018  RH  029%=      5-min Rain = 0
KSB1 260404Z 11007KT 16/M02 A3025 RMK A01 T01641018  RH  029%=      5-min Rain = 0
KSB1 260405Z 10007KT 17/M02 A3025 RMK A01 T01651017  RH  029%=      5-min Rain = 0
KSB1 260406Z 10008KT 17/M02 A3025 RMK A01 T01651017  RH  029%=      5-min Rain = 0
KSB1 260407Z 11007KT 17/M02 A3025 RMK A01 T01651017  RH  029%=      5-min Rain = 0
KSB1 260408Z 11008KT 17/M02 A3025 RMK A01 T01651016  RH  029%=      5-min Rain = 0
KSB1 260409Z 11007KT 17/M02 A3025 RMK A01 T01651016  RH  029%=      5-min Rain = 0
KSB1 260410Z 11007KT 17/M02 A3025 RMK A01 T01651016  RH  029%=      5-min Rain = 0
KSB1 260411Z 11007KT 17/M02 A3025 RMK A01 T01651016  RH  029%=      5-min Rain = 0
KSB1 260412Z 11006KT 16/M02 A3025 RMK A01 T01641016  RH  029%=      5-min Rain = 0
KSB1 260413Z 11007KT 16/M02 A3025 RMK A01 T01631016  RH  030%=      5-min Rain = 0
KSB1 260414Z 11009KT 16/M01 A3025 RMK A01 T01631014  RH  030%=      5-min Rain = 0
KSB1 260415Z 11008KT 16/M01 A3025 RMK A01 T01641013  RH  030%=      5-min Rain = 0
KSB1 260416Z 11008KT 17/M01 A3025 RMK A01 T01651014  RH  029%=      5-min Rain = 0
KSB1 260417Z 11009KT 17/M01 A3025 RMK A01 T01651014  RH  029%=      5-min Rain = 0
KSB1 260418Z 11007KT 17/M01 A3025 RMK A01 T01651014  RH  029%=      5-min Rain = 0
KSB1 260419Z 11008KT 16/M02 A3025 RMK A01 T01641015  RH  029%=      5-min Rain = 0
KSB1 260420Z 11008KT 16/M02 A3025 RMK A01 T01641015  RH  029%=      5-min Rain = 0
KSB1 260421Z 11007KT 16/M02 A3025 RMK A01 T01631015  RH  030%=      5-min Rain = 0
KSB1 260422Z 11008KT 16/M02 A3025 RMK A01 T01621015  RH  030%=      5-min Rain = 0
KSB1 260423Z 11009KT 16/M02 A3025 RMK A01 T01621015  RH  030%=      5-min Rain = 0
KSB1 260424Z 11007KT 16/M01 A3025 RMK A01 T01631014  RH  030%=      5-min Rain = 0
KSB1 260425Z 11009KT 16/M01 A3025 RMK A01 T01621014  RH  030%=      5-min Rain = 0
KSB1 260426Z 11008KT 16/M01 A3025 RMK A01 T01621014  RH  030%=      5-min Rain = 0
KSB1 260427Z 11007KT 16/M02 A3025 RMK A01 T01621015  RH  030%=      5-min Rain = 0
KSB1 260428Z 11007KT 16/M02 A3026 RMK A01 T01621015  RH  030%=      5-min Rain = 0
KSB1 260429Z 11007KT 16/M02 A3026 RMK A01 T01611015  RH  030%=      5-min Rain = 0
KSB1 260430Z 11007KT 16/M02 A3026 RMK A01 T01601015  RH  030%=      5-min Rain = 0
KSB1 260431Z 12007KT 16/M02 A3026 RMK A01 T01601015  RH  030%=      5-min Rain = 0
KSB1 260432Z 11008KT 16/M01 A3026 RMK A01 T01601014  RH  030%=      5-min Rain = 0
KSB1 260433Z 11008KT 16/M01 A3026 RMK A01 T01601014  RH  031%=      5-min Rain = 0
KSB1 260434Z 11007KT 16/M01 A3026 RMK A01 T01591013  RH  031%=      5-min Rain = 0
KSB1 260435Z 11008KT 16/M01 A3026 RMK A01 T01591013  RH  031%=      5-min Rain = 0
KSB1 260436Z 11008KT 16/M01 A3026 RMK A01 T01591013  RH  031%=      5-min Rain = 0
KSB1 260437Z 11008KT 16/M01 A3026 RMK A01 T01581013  RH  031%=      5-min Rain = 0
KSB1 260438Z 11008KT 16/M01 A3026 RMK A01 T01581013  RH  031%=      5-min Rain = 0
KSB1 260439Z 11007KT 16/M01 A3026 RMK A01 T01591013  RH  031%=      5-min Rain = 0
KSB1 260440Z 10007KT 16/M01 A3026 RMK A01 T01591013  RH  031%=      5-min Rain = 0
KSB1 260441Z 11007KT 16/M01 A3026 RMK A01 T01591013  RH  031%=      5-min Rain = 0
KSB1 260442Z 11007KT 16/M01 A3026 RMK A01 T01581012  RH  031%=      5-min Rain = 0
KSB1 260443Z 11006KT 16/M01 A3026 RMK A01 T01581013  RH  031%=      5-min Rain = 0
KSB1 260444Z 11007KT 16/M01 A3026 RMK A01 T01571013  RH  031%=      5-min Rain = 0
KSB1 260445Z 10007KT 16/M01 A3026 RMK A01 T01571012  RH  031%=      5-min Rain = 0
KSB1 260446Z 11006KT 16/M01 A3026 RMK A01 T01561013  RH  031%=      5-min Rain = 0
KSB1 260447Z 11006KT 16/M01 A3026 RMK A01 T01561013  RH  031%=      5-min Rain = 0
KSB1 260448Z 11006KT 16/M01 A3026 RMK A01 T01561013  RH  031%=      5-min Rain = 0
KSB1 260449Z 11006KT 16/M01 A3026 RMK A01 T01561013  RH  031%=      5-min Rain = 0
KSB1 260450Z 11006KT 16/M01 A3026 RMK A01 T01561013  RH  031%=      5-min Rain = 0
KSB1 260451Z 11006KT 16/M01 A3026 RMK A01 T01561012  RH  031%=      5-min Rain = 0
KSB1 260452Z 11007KT 16/M01 A3026 RMK A01 T01571012  RH  031%=      5-min Rain = 0
KSB1 260453Z 12007KT 16/M01 A3026 RMK A01 T01571013  RH  031%=      5-min Rain = 0
KSB1 260454Z 11006KT 16/M01 A3026 RMK A01 T01581012  RH  031%=      5-min Rain = 0
KSB1 260455Z 12006KT 16/M01 A3026 RMK A01 T01571013  RH  031%=      5-min Rain = 0
KSB1 260456Z 12006KT 16/M01 A3026 RMK A01 T01571013  RH  031%=      5-min Rain = 0
KSB1 260457Z 12007KT 16/M01 A3026 RMK A01 T01571013  RH  031%=      5-min Rain = 0
KSB1 260458Z 12006KT 16/M01 A3026 RMK A01 T01571013  RH  031%=      5-min Rain = 0
KSB1 260459Z 12006KT 16/M01 A3025 RMK A01 T01571012  RH  031%=      5-min Rain = 0

Page generated in 0.0936 seconds.